Flight Track Log - Related Links

Times and Time Zones

All times are in EDT time to prevent confusion due to time zone crossing. See the AFL150 flight status page for this flight to view local times or setup timezone preferences in your user account.

Time Position Orientation Groundspeed Altitude Reporting Facility
EDT Latitude Longitude Course Direction KTS MPH feet Rate Location/Type
Sat 06:35:28 AM 55.9650 37.3760 255° West 175 201  Level FlightAware ADS-B
Sat 06:35:53 AM 55.9600 37.3410 256° West 174 200 2,677 Level FlightAware ADS-B
Sat 06:36:08 AM 55.9570 37.3190 256° West 177 204 4,350 Level FlightAware ADS-B
Sat 06:36:33 AM 55.9520 37.2820 256° West 204 235 2,900 4,650 Climbing FlightAware ADS-B
Sat 06:36:48 AM 55.9490 37.2550 259° West 219 252 3,100 1,029 Climbing FlightAware ADS-B
Sat 06:37:08 AM 55.9530 37.2190 281° West 236 272 3,500 1,650 Climbing FlightAware ADS-B
Sat 06:37:28 AM 55.9580 37.1790 283° West 251 289 4,200 2,400 Climbing FlightAware ADS-B
Sat 06:37:53 AM 55.9640 37.1270 282° West 255 293 5,300 2,700 Climbing FlightAware ADS-B
Sat 06:38:08 AM 55.9670 37.0970 280° West 256 295 6,000 2,550 Climbing FlightAware ADS-B
Sat 06:38:33 AM 55.9730 37.0440 281° West 260 299 7,000 2,571 Climbing FlightAware ADS-B
Sat 06:38:43 AM 55.9750 37.0230 280° West 260 299 7,500 2,743 Climbing FlightAware ADS-B
Sat 06:39:08 AM 55.9810 36.9700 281° West 262 302 8,600 2,267 Climbing FlightAware ADS-B
Sat 06:39:28 AM 55.9860 36.9280 282° West 270 311 9,200 2,000 Climbing FlightAware ADS-B
Sat 06:39:44 AM 55.9900 36.8930 282° West 273 314 9,800 2,160 Climbing FlightAware ADS-B
Sat 06:40:18 AM 56.0000 36.8150 283° West 287 330 11,000 1,913 Climbing FlightAware ADS-B
Sat 06:40:53 AM 56.0090 36.7310 281° West 305 351 12,000 1,714 Climbing FlightAware ADS-B
Sat 06:41:28 AM 56.0190 36.6420 281° West 323 372 13,000 1,680 Climbing FlightAware ADS-B
Sat 06:42:08 AM 56.0310 36.5330 281° West 343 395 14,100 1,575 Climbing FlightAware ADS-B
Sat 06:42:48 AM 56.0440 36.4180 281° West 362 417 15,100 1,600 Climbing FlightAware ADS-B
Sat 06:43:23 AM 56.0550 36.3130 281° West 377 434 16,100 1,760 Climbing FlightAware ADS-B
Sat 06:44:03 AM 56.0690 36.1880 281° West 387 445 17,300 1,840 Climbing FlightAware ADS-B
Sat 06:44:38 AM 56.0800 36.0780 280° West 394 453 18,400 1,938 Climbing FlightAware ADS-B
Sat 06:45:08 AM 56.0910 35.9810 282° West 397 457 19,400 1,818 Climbing FlightAware ADS-B
Sat 06:45:44 AM 56.1030 35.8670 281° West 406 467 20,400 1,600 Climbing FlightAware ADS-B
Sat 06:46:23 AM 56.1170 35.7330 281° West 415 478 21,400 1,478 Climbing FlightAware ADS-B
Sat 06:46:53 AM 56.1270 35.6320 280° West 420 483 22,100 1,629 Climbing FlightAware ADS-B
Sat 06:47:33 AM 56.1410 35.4970 281° West 421 484 23,300 1,629 Climbing FlightAware ADS-B
Sat 06:48:03 AM 56.1520 35.3910 281° West 427 491 24,000 1,200 Climbing FlightAware ADS-B
Sat 06:48:38 AM 56.1640 35.2680 280° West 437 503 24,600 1,200 Climbing FlightAware ADS-B
Sat 06:49:13 AM 56.1770 35.1440 281° West 441 507 25,400 1,286 Climbing FlightAware ADS-B
Sat 06:49:48 AM 56.1900 35.0220 281° West 446 513 26,100 1,120 Climbing FlightAware ADS-B
Sat 06:50:28 AM 56.2060 34.8700 281° West 450 518 26,800 1,040 Climbing FlightAware ADS-B
Sat 06:51:03 AM 56.2200 34.7420 281° West 455 524 27,400 1,015 Climbing FlightAware ADS-B
Sat 06:51:33 AM 56.2320 34.6300 281° West 460 529 27,900 1,000 Climbing FlightAware ADS-B
Sat 06:52:09 AM 56.2460 34.4980 281° West 464 534 28,500 1,040 Climbing FlightAware ADS-B
Sat 06:52:48 AM 56.2620 34.3470 281° West 466 536 29,200 1,135 Climbing FlightAware ADS-B
Sat 06:53:23 AM 56.2760 34.2170 281° West 463 533 29,900 1,292 Climbing FlightAware ADS-B
Sat 06:53:53 AM 56.2880 34.1010 281° West 461 531 30,600 1,292 Climbing FlightAware ADS-B
Sat 06:54:28 AM 56.3000 33.9730 280° West 459 528 31,300 1,120 Climbing FlightAware ADS-B
Sat 06:55:08 AM 56.3160 33.8200 281° West 457 526 32,000 1,029 Climbing FlightAware ADS-B
Sat 06:55:38 AM 56.3260 33.7090 279° West 457 526 32,500 1,015 Climbing FlightAware ADS-B
Sat 06:56:13 AM 56.3390 33.5770 280° West 456 525 33,100 960 Climbing FlightAware ADS-B
Sat 06:56:53 AM 56.3530 33.4340 280° West 455 524 33,700 771 Climbing FlightAware ADS-B
Sat 06:57:23 AM 56.3640 33.3150 280° West 456 525 34,000 277 Climbing FlightAware ADS-B
Sat 06:57:58 AM 56.3760 33.1870 280° West 463 533 34,000  Level FlightAware ADS-B
Sat 06:58:33 AM 56.3890 33.0510 280° West 461 531 34,000  Level FlightAware ADS-B
Sat 06:59:13 AM 56.4020 32.9000 279° West 460 529 34,000  Level FlightAware ADS-B
Sat 06:59:48 AM 56.4140 32.7700 280° West 458 527 34,000  Level FlightAware ADS-B
Sat 07:00:18 AM 56.4240 32.6570 279° West 457 526 34,000  Level FlightAware ADS-B
Sat 07:00:53 AM 56.4360 32.5230 279° West 458 527 34,000  Level FlightAware ADS-B
Sat 07:01:33 AM 56.4490 32.3710 279° West 459 528 34,000  Level FlightAware ADS-B
Sat 07:02:08 AM 56.4600 32.2390 279° West 460 529 34,000  Level FlightAware ADS-B
Sat 07:02:38 AM 56.4700 32.1240 279° West 461 531 34,000  Level FlightAware ADS-B
Sat 07:03:13 AM 56.4810 31.9920 279° West 462 532 34,000  Level FlightAware ADS-B
Sat 07:04:06 AM 56.4950 31.8190 278° West 462 532 34,000  Level FlightAware ADS-B
Sat 07:04:42 AM 56.5040 31.7020 278° West 462 532 34,000  Level FlightAware ADS-B
Sat 07:05:18 AM 56.5130 31.5850 278° West 462 532 34,000  Level FlightAware ADS-B
Sat 07:05:54 AM 56.5220 31.4670 278° West 462 532 34,000  Level FlightAware ADS-B
Sat 07:06:30 AM 56.5310 31.3500 278° West 462 532 34,000  Level FlightAware ADS-B
Sat 07:07:07 AM 56.5400 31.2290 278° West 462 532 34,000  Level FlightAware ADS-B
Sat 07:07:43 AM 56.5500 31.1120 279° West 462 532 34,000  Level FlightAware ADS-B
Sat 07:07:56 AM 56.6170 30.9490 307° West 34,000  Level FlightAware ADS-B
Sat 07:08:31 AM 56.6580 30.8420 305° West 443 510 34,000  Level FlightAware ADS-B
Sat 07:09:06 AM 56.7040 30.7460 311° West 440 506 34,000  Level FlightAware ADS-B
Sat 07:09:41 AM 56.7470 30.6390 306° West 446 513 34,000  Level FlightAware ADS-B
Sat 07:10:16 AM 56.7870 30.5320 304° West 446 513 34,000  Level FlightAware ADS-B
Sat 07:10:56 AM 56.8310 30.4150 305° West 446 513 34,000  Level FlightAware ADS-B
Sat 07:11:31 AM 56.8760 30.2950 304° West 447 514 34,000  Level FlightAware ADS-B
Sat 07:12:08 AM 56.9130 30.1940 304° West 447 514 34,000  Level FlightAware ADS-B
Sat 07:12:59 AM 56.9670 30.0480 304° West 447 514 34,000  Level FlightAware ADS-B
Sat 07:13:45 AM 57.0250 29.8850 303° West 445 512 34,000  Level FlightAware ADS-B
Sat 07:14:20 AM 57.0670 29.7720 304° West 446 513 34,000  Level FlightAware ADS-B
Sat 07:14:55 AM 57.1050 29.6650 303° West 446 513 34,000  Level FlightAware ADS-B
Sat 07:15:30 AM 57.1440 29.5560 303° West 447 514 34,000  Level FlightAware ADS-B
Sat 07:16:05 AM 57.1840 29.4440 303° West 447 514 34,000  Level FlightAware ADS-B
Sat 07:16:41 AM 57.2250 29.3280 303° West 447 514 34,000  Level FlightAware ADS-B
Sat 07:17:15 AM 57.2650 29.2160 303° West 447 514 34,000  Level FlightAware ADS-B
Sat 07:18:00 AM 57.3120 29.0800 303° West 448 516 34,000  Level FlightAware ADS-B
Sat 07:18:33 AM 57.3560 28.9570 304° West 447 514 34,000  Level FlightAware ADS-B
Sat 07:19:09 AM 57.3940 28.8470 303° West 446 513 34,000  Level FlightAware ADS-B
Sat 07:19:45 AM 57.4350 28.7280 303° West 447 514 34,000  Level FlightAware ADS-B
Sat 07:20:19 AM 57.4740 28.6160 303° West 448 516 34,000  Level FlightAware ADS-B
Sat 07:20:52 AM 57.5100 28.5090 302° West 449 517 34,000  Level FlightAware ADS-B
Sat 07:21:29 AM 57.5500 28.3920 303° West 448 516 34,000  Level FlightAware ADS-B
Sat 07:22:05 AM 57.5910 28.2700 302° West 448 516 34,000  Level FlightAware ADS-B
Sat 07:22:40 AM 57.6290 28.1590 303° West 448 516 34,000  Level FlightAware ADS-B
Sat 07:23:12 AM 57.6650 28.0530 302° West 447 514 34,000  Level FlightAware ADS-B
Sat 07:23:49 AM 57.7050 27.9340 302° West 447 514 34,000  Level FlightAware ADS-B
Sat 07:24:26 AM 57.7450 27.8140 302° West 447 514 34,000  Level FlightAware ADS-B
Sat 07:24:57 AM 57.7790 27.7110 302° West 448 516 34,000  Level FlightAware ADS-B
Sat 07:25:33 AM 57.8180 27.5920 302° West 449 517 34,000  Level FlightAware ADS-B
Sat 07:26:02 AM 57.8450 27.4910 297° West 454 522 34,000  Level FlightAware ADS-B
Sat 07:26:36 AM 57.8710 27.3640 291° West 454 522 34,000  Level FlightAware ADS-B
Sat 07:27:13 AM 57.8980 27.2270 290° West 454 522 34,000  Level FlightAware ADS-B
Sat 07:27:45 AM 57.9220 27.1100 291° West 455 524 34,000  Level FlightAware ADS-B
Sat 07:28:22 AM 57.9480 26.9760 290° West 456 525 34,000  Level FlightAware ADS-B
Sat 07:28:59 AM 57.9760 26.8380 291° West 456 525 34,000  Level FlightAware ADS-B
Sat 07:29:31 AM 58.0000 26.7160 290° West 457 526 34,000  Level FlightAware ADS-B
Sat 07:30:06 AM 58.0260 26.5860 291° West 458 527 34,000  Level FlightAware ADS-B
Sat 07:30:43 AM 58.0530 26.4480 290° West 458 527 34,000  Level FlightAware ADS-B
Sat 07:31:18 AM 58.0770 26.3220 290° West 457 526 34,000  Level FlightAware ADS-B
Sat 07:31:51 AM 58.1000 26.2020 290° West 457 526 34,000  Level FlightAware ADS-B
Sat 07:32:27 AM 58.1280 26.0580 290° West 457 526 34,000  Level FlightAware ADS-B
Sat 07:33:02 AM 58.1520 25.9280 289° West 456 525 34,000  Level FlightAware ADS-B
Sat 07:33:35 AM 58.1750 25.8070 290° West 456 525 34,000  Level FlightAware ADS-B
Sat 07:34:13 AM 58.2020 25.6630 290° West 457 526 34,000  Level FlightAware ADS-B
Sat 07:34:48 AM 58.2270 25.5290 290° West 457 526 34,000  Level FlightAware ADS-B
Sat 07:35:20 AM 58.2500 25.4070 290° West 457 526 34,000  Level FlightAware ADS-B
Sat 07:35:57 AM 58.2750 25.2680 289° West 458 527 34,000  Level FlightAware ADS-B
Sat 07:36:31 AM 58.2990 25.1390 290° West 459 528 34,000  Level FlightAware ADS-B
Sat 07:37:04 AM 58.3220 25.0140 289° West 457 526 34,000  Level FlightAware ADS-B
Sat 07:37:37 AM 58.3440 24.8880 288° West 458 527 34,000  Level FlightAware ADS-B
Sat 07:38:07 AM 58.3640 24.7740 289° West 458 527 34,000  Level FlightAware ADS-B
Sat 07:38:46 AM 58.3910 24.6240 289° West 458 527 34,000  Level FlightAware ADS-B
Sat 07:39:23 AM 58.4160 24.4820 289° West 459 528 34,000  Level FlightAware ADS-B
Sat 07:39:55 AM 58.4360 24.3590 287° West 460 529 34,000  Level FlightAware ADS-B
Sat 07:40:30 AM 58.4560 24.2220 286° West 460 529 34,000  Level FlightAware ADS-B
Sat 07:41:04 AM 58.4760 24.0900 286° West 458 527 34,000  Level FlightAware ADS-B
Sat 07:41:40 AM 58.4960 23.9520 286° West 458 527 34,000  Level FlightAware ADS-B
Sat 07:42:17 AM 58.5170 23.8130 286° West 457 526 34,000  Level FlightAware ADS-B
Sat 07:42:51 AM 58.5370 23.6780 286° West 457 526 34,000  Level FlightAware ADS-B
Sat 07:43:26 AM 58.5570 23.5410 286° West 456 525 34,000  Level FlightAware ADS-B
Sat 07:44:03 AM 58.5770 23.3990 285° West 456 525 34,000  Level FlightAware ADS-B
Sat 07:44:35 AM 58.5960 23.2740 286° West 456 525 34,000  Level FlightAware ADS-B
Sat 07:45:10 AM 58.6140 23.1410 285° West 457 526 34,000  Level FlightAware ADS-B
Sat 07:45:47 AM 58.6350 22.9950 286° West 457 526 34,000  Level FlightAware ADS-B
Sat 07:46:21 AM 58.6540 22.8570 285° West 457 526 34,000  Level FlightAware ADS-B
Sat 07:46:58 AM 58.6740 22.7130 285° West 459 528 34,000  Level FlightAware ADS-B
Sat 07:47:30 AM 58.6910 22.5880 285° West 460 529 34,000  Level FlightAware ADS-B
Sat 07:48:05 AM 58.7100 22.4530 285° West 460 529 34,000  Level FlightAware ADS-B
Sat 07:48:38 AM 58.7270 22.3260 285° West 459 528 34,000  Level FlightAware ADS-B
Sat 07:49:18 AM 58.7490 22.1640 285° West 459 528 34,000  Level FlightAware ADS-B
Sat 07:49:49 AM 58.7650 22.0450 285° West 459 528 34,000  Level FlightAware ADS-B
Sat 07:50:26 AM 58.7840 21.8970 284° West 459 528 34,000  Level FlightAware ADS-B
Sat 07:51:02 AM 58.8030 21.7550 285° West 459 528 34,000  Level FlightAware ADS-B
Sat 07:51:38 AM 58.8210 21.6140 284° West 460 529 34,000  Level FlightAware ADS-B
Sat 07:52:09 AM 58.8370 21.4860 284° West 461 531 34,000  Level FlightAware ADS-B
Sat 07:52:46 AM 58.8550 21.3480 284° West 460 529 34,000  Level FlightAware ADS-B
Sat 07:53:23 AM 58.8790 21.1930 287° West 457 526 34,000  Level FlightAware ADS-B
Sat 07:53:55 AM 58.9010 21.0700 289° West 458 527 34,000  Level FlightAware ADS-B
Sat 07:54:31 AM 58.9250 20.9290 288° West 459 528 34,000  Level FlightAware ADS-B
Sat 07:55:07 AM 58.9480 20.7900 288° West 459 528 34,000  Level FlightAware ADS-B
Sat 07:55:39 AM 58.9690 20.6650 288° West 460 529 34,000  Level FlightAware ADS-B
Sat 07:56:13 AM 58.9900 20.5310 287° West 461 531 34,000  Level FlightAware ADS-B
Sat 07:56:51 AM 59.0140 20.3830 288° West 460 529 34,000  Level FlightAware ADS-B
Sat 07:57:27 AM 59.0370 20.2390 287° West 462 532 34,000  Level FlightAware ADS-B
Sat 07:58:01 AM 59.0580 20.1070 287° West 462 532 34,000  Level FlightAware ADS-B
Sat 07:58:33 AM 59.0780 19.9780 287° West 463 533 34,000  Level FlightAware ADS-B
Sat 07:59:09 AM 59.1000 19.8410 287° West 462 532 34,000  Level FlightAware ADS-B
Sat 07:59:43 AM 59.1210 19.7050 287° West 462 532 34,000  Level FlightAware ADS-B
Sat 08:00:07 AM 59.1357 19.6076 286° West 462 532 34,000  Level FlightAware ADS-B
Sat 08:00:46 AM 59.1588 19.4566 287° West 462 532 34,000  Level FlightAware ADS-B
Sat 08:01:18 AM 59.1736 19.3592 287° West 462 532 34,000  Level FlightAware ADS-B
Sat 08:01:48 AM 59.1973 19.2020 286° West 463 533 34,000  Level FlightAware ADS-B
Sat 08:02:28 AM 59.2211 19.0426 286° West 463 533 34,000  Level FlightAware ADS-B
Sat 08:02:58 AM 59.2379 18.9281 286° West 464 534 34,000  Level FlightAware ADS-B
Sat 08:03:28 AM 59.2550 18.8114 286° West 464 534 34,000  Level FlightAware ADS-B
Sat 08:03:59 AM 59.2733 18.6854 286° West 464 534 34,000  Level FlightAware ADS-B
Sat 08:04:49 AM 59.3032 18.4771 286° West 465 535 34,000  Level FlightAware ADS-B
Sat 08:05:38 AM 59.3310 18.2821 286° West 467 537 34,000  Level FlightAware ADS-B
Sat 08:06:08 AM 59.3468 18.1703 285° West 468 539 34,000  Level FlightAware ADS-B
Sat 08:06:38 AM 59.3654 18.0375 285° West 468 539 34,000  Level FlightAware ADS-B
Sat 08:07:08 AM 59.3826 17.9131 285° West 467 537 34,000  Level FlightAware ADS-B
Sat 08:07:39 AM 59.4003 17.7845 285° West 467 537 34,000  Level FlightAware ADS-B
Sat 08:08:10 AM 59.4174 17.6599 285° West 468 539 34,000  Level FlightAware ADS-B
Sat 08:08:49 AM 59.4389 17.5002 285° West 468 539 34,000  Level FlightAware ADS-B
Sat 08:09:20 AM 59.4541 17.3870 285° West 469 540 34,000  Level FlightAware ADS-B
Sat 08:09:50 AM 59.4723 17.2501 285° West 470 541 34,000 200 Level FlightAware ADS-B
Sat 08:10:20 AM 59.4885 17.1270 285° West 469 540 34,200 400 Climbing FlightAware ADS-B
Sat 08:10:50 AM 59.5040 17.0060 284° West 472 543 34,400 450 Climbing FlightAware ADS-B
Sat 08:11:00 AM 59.5094 16.9682 286° West 474 545 34,500 600 Climbing FlightAware ADS-B
Sat 08:11:30 AM 59.5264 16.8365 284° West 475 547 34,800 500 Climbing FlightAware ADS-B
Sat 08:12:00 AM 59.5426 16.7092 284° West 473 544 35,000 500 Climbing FlightAware ADS-B
Sat 08:12:30 AM 59.5585 16.5837 284° West 474 545 35,300 492 Climbing FlightAware ADS-B
Sat 08:13:01 AM 59.5739 16.4615 284° West 474 545 35,500 429 Climbing FlightAware ADS-B
Sat 08:13:40 AM 59.5944 16.2973 284° West 474 545 35,800 343 Climbing FlightAware ADS-B
Sat 08:14:11 AM 59.6112 16.1616 284° West 473 544 35,900 197 Climbing FlightAware ADS-B
Sat 08:14:41 AM 59.6265 16.0378 284° West 472 543 36,000 100 Climbing FlightAware ADS-B
Sat 08:15:11 AM 59.6416 15.9130 284° West 472 543 36,000  Level FlightAware ADS-B
Sat 08:15:50 AM 59.6613 15.7489 283° West 472 543 36,000  Level FlightAware ADS-B
Sat 08:16:47 AM 59.6899 15.5080 283° West 472 543 36,000  Level FlightAware ADS-B
Sat 08:17:19 AM 59.7043 15.3853 283° West 469 540 36,000  Level FlightAware ADS-B
Sat 08:17:57 AM 59.7230 15.2260 283° West 468 539 36,000  Level FlightAware ADS-B
Sat 08:18:34 AM 59.7410 15.0680 283° West 469 540 36,000  Level FlightAware ADS-B
Sat 08:19:07 AM 59.7560 14.9340 283° West 470 541 36,000  Level FlightAware ADS-B
Sat 08:19:42 AM 59.7720 14.7860 282° West 470 541 36,000  Level FlightAware ADS-B
Sat 08:20:17 AM 59.7890 14.6340 283° West 470 541 36,000  Level FlightAware ADS-B
Sat 08:20:53 AM 59.8050 14.4870 282° West 472 543 36,000  Level FlightAware ADS-B
Sat 08:21:30 AM 59.8230 14.3290 283° West 475 547 36,000  Level FlightAware ADS-B
Sat 08:22:02 AM 59.8360 14.2000 281° West 478 550 36,000  Level FlightAware ADS-B
Sat 08:22:37 AM 59.8560 14.0390 284° West 477 549 36,000  Level FlightAware ADS-B
Sat 08:23:14 AM 59.8800 13.8860 287° West 479 551 36,000  Level FlightAware ADS-B
Sat 08:23:46 AM 59.9010 13.7500 287° West 479 551 36,000  Level FlightAware ADS-B
Sat 08:24:23 AM 59.9240 13.5950 287° West 480 552 36,000  Level FlightAware ADS-B
Sat 08:25:00 AM 59.9480 13.4400 287° West 480 552 36,000  Level FlightAware ADS-B
Sat 08:25:30 AM 59.9670 13.3110 286° West 482 555 36,000  Level FlightAware ADS-B
Sat 08:26:03 AM 59.9870 13.1780 287° West 483 556 36,000  Level FlightAware ADS-B
Sat 08:26:44 AM 60.0140 12.9960 287° West 485 558 36,000  Level FlightAware ADS-B
Sat 08:27:19 AM 60.0340 12.8530 286° West 486 559 36,000  Level FlightAware ADS-B
Sat 08:27:51 AM 60.0540 12.7170 286° West 486 559 36,000  Level FlightAware ADS-B
Sat 08:28:28 AM 60.0770 12.5550 286° West 486 559 36,000  Level FlightAware ADS-B
Sat 08:29:03 AM 60.0990 12.3980 286° West 486 559 36,000  Level FlightAware ADS-B
Sat 08:29:40 AM 60.1210 12.2410 286° West 484 557 36,000  Level FlightAware ADS-B
Sat 08:30:10 AM 60.1390 12.1130 286° West 484 557 36,000  Level FlightAware ADS-B
Sat 08:30:47 AM 60.1620 11.9490 286° West 483 556 36,000  Level FlightAware ADS-B
Sat 08:31:23 AM 60.1820 11.7970 285° West 481 554 36,000  Level FlightAware ADS-B
Sat 08:31:56 AM 60.2010 11.6580 285° West 481 554 36,000  Level FlightAware ADS-B
Sat 08:32:32 AM 60.2220 11.5010 285° West 482 555 36,000  Level FlightAware ADS-B
Sat 08:33:02 AM 60.2400 11.3690 285° West 483 556 36,000  Level FlightAware ADS-B
Sat 08:33:44 AM 60.2630 11.1900 285° West 483 556 36,000  Level FlightAware ADS-B
Sat 08:34:17 AM 60.2820 11.0430 285° West 483 556 36,000  Level FlightAware ADS-B
Sat 08:34:52 AM 60.3020 10.8920 285° West 484 557 36,000  Level FlightAware ADS-B
Sat 08:35:29 AM 60.3230 10.7240 284° West 483 556 36,000  Level FlightAware ADS-B
Sat 08:36:01 AM 60.3410 10.5840 285° West 483 556 36,000  Level FlightAware ADS-B
Sat 08:36:38 AM 60.3610 10.4230 284° West 483 556 36,000  Level FlightAware ADS-B
Sat 08:37:10 AM 60.3780 10.2850 284° West 483 556 36,000  Level FlightAware ADS-B
Sat 08:37:47 AM 60.3980 10.1220 284° West 482 555 36,000  Level FlightAware ADS-B
Sat 08:38:22 AM 60.4160 9.9670 283° West 482 555 36,000  Level FlightAware ADS-B
Sat 08:38:59 AM 60.4350 9.8090 284° West 482 555 36,000  Level FlightAware ADS-B
Sat 08:39:31 AM 60.4520 9.6660 284° West 483 556 36,000  Level FlightAware ADS-B
Sat 08:40:08 AM 60.4710 9.5060 284° West 482 555 36,000  Level FlightAware ADS-B
Sat 08:40:45 AM 60.4900 9.3410 283° West 483 556 36,000  Level FlightAware ADS-B
Sat 08:41:17 AM 60.5060 9.2010 283° West 483 556 36,000  Level FlightAware ADS-B
Sat 08:41:54 AM 60.5240 9.0390 283° West 483 556 36,000  Level FlightAware ADS-B
Sat 08:42:27 AM 60.5410 8.8900 283° West 484 557 36,000  Level FlightAware ADS-B
Sat 08:43:04 AM 60.5580 8.7300 282° West 485 558 36,000  Level FlightAware ADS-B
Sat 08:43:39 AM 60.5750 8.5740 283° West 486 559 36,000  Level FlightAware ADS-B
Sat 08:44:12 AM 60.5910 8.4270 283° West 487 560 36,000  Level FlightAware ADS-B
Sat 08:44:47 AM 60.6080 8.2710 283° West 487 560 36,000  Level FlightAware ADS-B
Sat 08:45:22 AM 60.6240 8.1140 282° West 488 562 36,000  Level FlightAware ADS-B
Sat 08:46:00 AM 60.6420 7.9420 282° West 488 562 36,000  Level FlightAware ADS-B
Sat 08:46:31 AM 60.6560 7.8080 282° West 488 562 36,000  Level FlightAware ADS-B
Sat 08:47:06 AM 60.6720 7.6540 282° West 488 562 36,000  Level FlightAware ADS-B
Sat 08:47:41 AM 60.6880 7.4970 282° West 487 560 36,000  Level FlightAware ADS-B
Sat 08:48:18 AM 60.7040 7.3270 281° West 488 562 36,000  Level FlightAware ADS-B
Sat 08:48:52 AM 60.7190 7.1750 281° West 488 562 36,000  Level FlightAware ADS-B
Sat 08:49:27 AM 60.7340 7.0250 282° West 489 563 36,000  Level FlightAware ADS-B
Sat 08:50:04 AM 60.7500 6.8540 281° West 488 562 36,000  Level FlightAware ADS-B
Sat 08:50:39 AM 60.7660 6.6890 281° West 489 563 36,000  Level FlightAware ADS-B
Sat 08:51:12 AM 60.7790 6.5410 280° West 489 563 36,000  Level FlightAware ADS-B
Sat 08:51:47 AM 60.7940 6.3830 281° West 489 563 36,000  Level FlightAware ADS-B
Sat 08:52:24 AM 60.8090 6.2160 281° West 489 563 36,000  Level FlightAware ADS-B
Sat 08:52:59 AM 60.8230 6.0600 280° West 490 564 36,000  Level FlightAware ADS-B
Sat 08:53:31 AM 60.8360 5.9080 280° West 490 564 36,000  Level FlightAware ADS-B
Sat 08:54:08 AM 60.8500 5.7390 280° West 491 565 36,000  Level FlightAware ADS-B
Sat 08:54:42 AM 60.8640 5.5790 280° West 491 565 36,000  Level FlightAware ADS-B
Sat 08:55:17 AM 60.8770 5.4220 280° West 491 565 36,000  Level FlightAware ADS-B
Sat 08:55:53 AM 60.8910 5.2580 280° West 491 565 36,000  Level FlightAware ADS-B
Sat 08:56:26 AM 60.9030 5.1130 280° West 490 564 36,000  Level FlightAware ADS-B
Sat 08:57:01 AM 60.9160 4.9490 279° West 491 565 36,000  Level FlightAware ADS-B
Sat 08:57:39 AM 60.9290 4.7760 279° West 491 565 36,000  Level FlightAware ADS-B
Sat 08:58:12 AM 60.9410 4.6250 279° West 490 564 36,000  Level FlightAware ADS-B
Sat 08:58:47 AM 60.9530 4.4630 279° West 490 564 36,000  Level FlightAware ADS-B
Sat 08:59:22 AM 60.9650 4.3030 279° West 491 565 36,000  Level FlightAware ADS-B
Sat 08:59:59 AM 60.9780 4.1320 279° West 491 565 36,000  Level FlightAware ADS-B
Sat 09:00:30 AM 60.9890 3.9850 279° West 492 566 36,000  Level FlightAware ADS-B
Sat 09:01:08 AM 61.0010 3.8080 278° West 492 566 36,000  Level FlightAware ADS-B
Sat 09:01:41 AM 61.0120 3.6610 279° West 492 566 36,000  Level FlightAware ADS-B
Sat 09:02:16 AM 61.0230 3.4970 278° West 492 566 36,000  Level FlightAware ADS-B
Sat 09:02:50 AM 61.0340 3.3310 278° West 491 565 36,000  Level FlightAware ADS-B
Sat 09:03:27 AM 61.0450 3.1600 278° West 492 566 36,000  Level FlightAware ADS-B
Sat 09:04:02 AM 61.0550 3.0060 278° West 492 566 36,000  Level FlightAware ADS-B
Sat 09:04:38 AM 61.0660 2.8340 278° West 491 565 36,000  Level FlightAware ADS-B
Sat 09:05:13 AM 61.0770 2.6710 278° West 491 565 36,000  Level FlightAware ADS-B
Sat 09:05:50 AM 61.0870 2.5010 277° West 490 564 36,000  Level FlightAware ADS-B
Sat 09:06:22 AM 61.0950 2.3610 277° West 490 564 36,000  Level FlightAware ADS-B
Sat 09:06:58 AM 61.1050 2.1930 277° West 490 564 36,000  Level FlightAware ADS-B
Sat 09:07:34 AM 61.1150 2.0160 277° West 491 565 36,000  Level FlightAware ADS-B
Sat 09:08:07 AM 61.1240 1.8660 277° West 491 565 36,000  Level FlightAware ADS-B
Sat 09:08:43 AM 61.1330 1.6990 276° West 492 566 36,000  Level FlightAware ADS-B
Sat 09:09:16 AM 61.1410 1.5420 276° West 491 565 36,000  Level FlightAware ADS-B
Sat 09:09:53 AM 61.1500 1.3730 276° West 491 565 36,000  Level FlightAware ADS-B
Sat 09:10:27 AM 61.1590 1.2110 277° West 490 564 36,000  Level FlightAware ADS-B
Sat 09:11:03 AM 61.1670 1.0470 276° West 490 564 36,000  Level FlightAware ADS-B
Sat 09:11:37 AM 61.1720 0.9350 275° West 489 563 36,000  Level FlightAware ADS-B
Sat 09:12:13 AM 61.1820 0.7320 276° West 490 564 36,000  Level FlightAware ADS-B
Sat 09:12:47 AM 61.1900 0.5720 276° West 491 565 36,000  Level FlightAware ADS-B
Sat 09:13:23 AM 61.1980 0.3960 275° West 492 566 36,000  Level FlightAware ADS-B
Sat 09:13:59 AM 61.2050 0.2270 275° West 491 565 36,000  Level FlightAware ADS-B
Sat 09:14:32 AM 61.2160 0.0780 279° West 489 563 36,000  Level FlightAware ADS-B
Sat 09:15:05 AM 61.2350 -0.0710 285° West 488 562 36,000  Level FlightAware ADS-B
Sat 09:15:41 AM 61.2650 -0.2320 291° West 487 560 36,000  Level FlightAware ADS-B
Sat 09:16:18 AM 61.3010 -0.3870 296° West 488 562 36,000  Level FlightAware ADS-B
Sat 09:16:55 AM 61.3360 -0.5430 295° West 488 562 36,000  Level FlightAware ADS-B
Sat 09:17:26 AM 61.3650 -0.6730 295° West 487 560 36,000  Level FlightAware ADS-B
Sat 09:18:02 AM 61.3980 -0.8220 295° West 486 559 36,000  Level FlightAware ADS-B
Sat 09:18:36 AM 61.4320 -0.9780 295° West 486 559 36,000  Level FlightAware ADS-B
Sat 09:19:14 AM 61.4660 -1.1350 294° West 485 558 36,000  Level FlightAware ADS-B
Sat 09:19:46 AM 61.4950 -1.2730 294° West 485 558 36,000  Level FlightAware ADS-B
Sat 09:20:23 AM 61.5290 -1.4310 294° West 484 557 36,000  Level FlightAware ADS-B
Sat 09:20:59 AM 61.5630 -1.5890 294° West 484 557 36,000  Level FlightAware ADS-B
Sat 09:21:32 AM 61.5920 -1.7300 293° West 483 556 36,000  Level FlightAware ADS-B
Sat 09:22:15 AM 61.6300 -1.9110 294° West 483 556 36,000  Level FlightAware ADS-B
Sat 09:22:49 AM 61.6610 -2.0590 294° West 483 556 36,000  Level FlightAware ADS-B
Sat 09:23:24 AM 61.6900 -2.2010 293° West 483 556 36,000  Level FlightAware ADS-B
Sat 09:24:00 AM 61.7230 -2.3650 293° West 482 555 36,000  Level FlightAware ADS-B
Sat 09:24:36 AM 61.7540 -2.5160 294° West 483 556 36,000  Level FlightAware ADS-B
Sat 09:25:07 AM 61.7820 -2.6560 293° West 481 554 36,000  Level FlightAware ADS-B
Sat 09:25:44 AM 61.8130 -2.8130 293° West 481 554 36,000  Level FlightAware ADS-B
Sat 09:26:21 AM 61.8450 -2.9730 293° West 481 554 36,000  Level FlightAware ADS-B
Sat 09:26:56 AM 61.8750 -3.1260 293° West 481 554 36,000  Level FlightAware ADS-B
Sat 09:27:28 AM 61.9020 -3.2650 292° West 481 554 36,000  Level FlightAware ADS-B
Sat 09:28:02 AM 61.9300 -3.4120 292° West 479 551 36,000  Level FlightAware ADS-B
Sat 09:28:38 AM 61.9610 -3.5700 293° West 479 551 36,000  Level FlightAware ADS-B
Sat 09:29:16 AM 61.9920 -3.7350 292° West 477 549 36,000  Level FlightAware ADS-B
Sat 09:29:48 AM 62.0170 -3.8660 292° West 478 550 36,000  Level FlightAware ADS-B
Sat 09:30:24 AM 62.0470 -4.0290 291° West 476 548 36,000  Level FlightAware ADS-B
Sat 09:31:02 AM 62.0780 -4.1940 292° West 476 548 36,000  Level FlightAware ADS-B
Sat 09:31:34 AM 62.1040 -4.3360 291° West 476 548 36,000  Level FlightAware ADS-B
Sat 09:32:10 AM 62.1320 -4.4910 291° West 477 549 36,000  Level FlightAware ADS-B
Sat 09:32:46 AM 62.1610 -4.6500 291° West 478 550 36,000  Level FlightAware ADS-B
Sat 09:33:22 AM 62.1900 -4.8080 292° West 476 548 36,000  Level FlightAware ADS-B
Sat 09:33:53 AM 62.2140 -4.9430 291° West 476 548 36,000  Level FlightAware ADS-B
Sat 09:34:30 AM 62.2420 -5.1000 291° West 476 548 36,000  Level FlightAware ADS-B
Sat 09:35:06 AM 62.2710 -5.2670 291° West 475 547 36,000  Level FlightAware ADS-B
Sat 09:35:38 AM 62.2960 -5.4080 291° West 475 547 36,000  Level FlightAware ADS-B
Sat 09:36:22 AM 62.3290 -5.6030 290° West 475 547 36,000  Level FlightAware ADS-B
Sat 09:36:58 AM 62.3560 -5.7600 290° West 476 548 36,000  Level FlightAware ADS-B
Sat 09:37:30 AM 62.3810 -5.9030 291° West 476 548 36,000  Level FlightAware ADS-B
Sat 09:38:06 AM 62.4080 -6.0640 290° West 476 548 36,000  Level FlightAware ADS-B
Sat 09:38:42 AM 62.4350 -6.2250 290° West 476 548 36,000  Level FlightAware ADS-B
Sat 09:39:12 AM 62.4560 -6.3560 289° West 475 547 36,000  Level FlightAware ADS-B
Sat 09:39:50 AM 62.4840 -6.5270 290° West 475 547 36,000  Level FlightAware ADS-B
Sat 09:40:26 AM 62.5100 -6.6860 290° West 475 547 36,000  Level FlightAware ADS-B
Sat 09:41:04 AM 62.5380 -6.8570 290° West 475 547 36,000 257 Level FlightAware ADS-B
Sat 09:41:36 AM 62.5610 -6.9990 289° West 475 547 36,300 529 Climbing FlightAware ADS-B
Sat 09:42:12 AM 62.5860 -7.1590 289° West 474 545 36,600 500 Climbing FlightAware ADS-B
Sat 09:42:48 AM 62.6120 -7.3220 289° West 476 548 36,900 333 Climbing FlightAware ADS-B
Sat 09:43:24 AM 62.6380 -7.4880 289° West 476 548 37,000 90 Climbing FlightAware ADS-B
Sat 09:43:55 AM 62.6580 -7.6220 288° West 476 548 37,000  Level FlightAware ADS-B
Sat 09:44:32 AM 62.6840 -7.7920 289° West 477 549 37,000  Level FlightAware ADS-B
Sat 09:45:13 AM 62.7090 -7.9550 289° West 477 549 37,000  Level FlightAware ADS-B
Sat 09:45:47 AM 62.7340 -8.1200 288° West 475 547 37,000  Level FlightAware ADS-B
Sat 09:46:19 AM 62.7570 -8.2710 288° West 474 545 37,000  Level FlightAware ADS-B
Sat 09:46:54 AM 62.7810 -8.4370 288° West 472 543 37,000  Level FlightAware ADS-B
Sat 09:47:34 AM 62.8030 -8.5930 287° West 472 543 37,000  Level FlightAware ADS-B
Sat 09:48:08 AM 62.8300 -8.7720 288° West 470 541 37,000  Level FlightAware ADS-B
Sat 09:48:43 AM 62.8520 -8.9270 287° West 470 541 37,000  Level FlightAware ADS-B
Sat 09:49:19 AM 62.8760 -9.0960 287° West 469 540 37,000  Level FlightAware ADS-B
Sat 09:49:55 AM 62.8980 -9.2550 287° West 468 539 37,000  Level FlightAware ADS-B
Sat 09:50:27 AM 62.9190 -9.4010 288° West 468 539 37,000  Level FlightAware ADS-B
Sat 09:51:03 AM 62.9410 -9.5620 287° West 468 539 37,000  Level FlightAware ADS-B
Sat 09:51:39 AM 62.9640 -9.7290 287° West 470 541 37,000  Level FlightAware ADS-B
Sat 09:52:13 AM 62.9840 -9.8830 286° West 471 542 37,000  Level FlightAware ADS-B
Sat 09:52:48 AM 63.0000 -10.0460 282° West 468 539 37,000  Level FlightAware ADS-B
Sat 09:53:25 AM 63.0080 -10.2220 276° West 467 537 37,000  Level FlightAware ADS-B
Sat 09:54:01 AM 63.0140 -10.3930 274° West 469 540 37,000  Level FlightAware ADS-B
Sat 09:54:33 AM 63.0190 -10.5450 274° West 470 541 37,000  Level FlightAware ADS-B
Sat 09:55:09 AM 63.0240 -10.7150 274° West 471 542 37,000  Level FlightAware ADS-B
Sat 09:55:43 AM 63.0290 -10.8790 274° West 470 541 37,000  Level FlightAware ADS-B
Sat 09:56:20 AM 63.0340 -11.0520 274° West 468 539 37,000  Level FlightAware ADS-B
Sat 09:56:53 AM 63.0380 -11.2110 273° West 466 536 37,000  Level FlightAware ADS-B
Sat 09:57:31 AM 63.0430 -11.3890 274° West 466 536 37,000  Level FlightAware ADS-B
Sat 09:58:06 AM 63.0470 -11.5530 273° West 465 535 37,000  Level FlightAware ADS-B
Sat 09:58:39 AM 63.0500 -11.7100 272° West 464 534 37,000  Level FlightAware ADS-B
Sat 09:59:17 AM 63.0540 -11.8790 273° West 463 533 37,000  Level FlightAware ADS-B
Sat 09:59:47 AM 63.0570 -12.0300 273° West 462 532 37,000  Level FlightAware ADS-B
Sat 10:00:23 AM 63.0610 -12.1990 273° West 463 533 37,000  Level FlightAware ADS-B
Sat 10:00:59 AM 63.0640 -12.3700 272° West 464 534 37,000  Level FlightAware ADS-B
Sat 10:01:34 AM 63.0670 -12.5320 272° West 463 533 37,000  Level FlightAware ADS-B
Sat 10:02:12 AM 63.0700 -12.7100 272° West 462 532 37,000  Level FlightAware ADS-B
Sat 10:02:44 AM 63.0730 -12.8590 273° West 461 531 37,000  Level FlightAware ADS-B
Sat 10:03:22 AM 63.0750 -13.0360 272° West 460 529 37,000  Level FlightAware ADS-B
Sat 10:03:54 AM 63.0770 -13.1870 272° West 459 528 37,000  Level FlightAware ADS-B
Sat 10:04:29 AM 63.0790 -13.3510 272° West 459 528 37,000  Level FlightAware ADS-B
Sat 10:05:05 AM 63.0810 -13.5210 272° West 458 527 37,000  Level FlightAware ADS-B
Sat 10:05:39 AM 63.0830 -13.6790 272° West 457 526 37,000  Level FlightAware ADS-B
Sat 10:06:15 AM 63.0840 -13.8450 271° West 457 526 37,000  Level FlightAware ADS-B
Sat 10:06:52 AM 63.0850 -14.0150 271° West 458 527 37,000  Level FlightAware ADS-B
Sat 10:07:26 AM 63.0860 -14.1740 271° West 459 528 37,000  Level FlightAware ADS-B
Sat 10:08:00 AM 63.0870 -14.3320 271° West 460 529 37,000  Level FlightAware ADS-B
Sat 10:08:36 AM 63.0880 -14.5000 271° West 461 531 37,000  Level FlightAware ADS-B
Sat 10:09:11 AM 63.0880 -14.6660 270° West 461 531 37,000  Level FlightAware ADS-B
Sat 10:09:51 AM 63.0890 -14.8540 271° West 460 529 37,000  Level FlightAware ADS-B
Sat 10:10:23 AM 63.0890 -15.0050 270° West 460 529 37,000  Level FlightAware ADS-B
Sat 10:11:04 AM 63.0880 -15.1930 269° West 458 527 37,000  Level FlightAware ADS-B
Sat 10:11:35 AM 63.0880 -15.3400 270° West 457 526 37,000  Level FlightAware ADS-B
Sat 10:12:11 AM 63.0880 -15.4620 270° West 456 525 37,000  Level FlightAware ADS-B
Sat 10:12:47 AM 63.0870 -15.6590 269° West 457 526 37,000  Level FlightAware ADS-B
Sat 10:13:23 AM 63.0860 -15.8340 269° West 456 525 37,000  Level FlightAware ADS-B
Sat 10:13:56 AM 63.0850 -15.9890 269° West 456 525 37,000  Level FlightAware ADS-B
Sat 10:14:30 AM 63.0840 -16.1470 269° West 455 524 37,000  Level FlightAware ADS-B
Sat 10:15:07 AM 63.0830 -16.3140 269° West 455 524 37,000  Level FlightAware ADS-B
Sat 10:15:37 AM 63.0810 -16.4540 268° West 454 522 37,000  Level FlightAware ADS-B
Sat 10:16:18 AM 63.0790 -16.6330 269° West 454 522 37,000  Level FlightAware ADS-B
Sat 10:16:54 AM 63.0770 -16.8100 269° West 454 522 37,000  Level FlightAware ADS-B
Sat 10:17:27 AM 63.0750 -16.9620 268° West 454 522 37,000  Level FlightAware ADS-B
Sat 10:18:03 AM 63.0730 -17.1240 269° West 454 522 37,000  Level FlightAware ADS-B
Sat 10:18:35 AM 63.0700 -17.2750 268° West 454 522 37,000  Level FlightAware ADS-B
Sat 10:19:08 AM 63.0680 -17.4300 268° West 454 522 37,000  Level FlightAware ADS-B
Sat 10:19:48 AM 63.0650 -17.6130 268° West 453 521 37,000  Level FlightAware ADS-B
Sat 10:20:23 AM 63.0610 -17.7790 267° West 452 520 37,000  Level FlightAware ADS-B
Sat 10:20:57 AM 63.0580 -17.9330 268° West 451 519 37,000  Level FlightAware ADS-B
Sat 10:21:32 AM 63.0550 -18.0960 268° West 452 520 37,000  Level FlightAware ADS-B
Sat 10:22:07 AM 63.0510 -18.2510 267° West 452 520 37,000  Level FlightAware ADS-B
Sat 10:22:40 AM 63.0480 -18.4080 268° West 453 521 37,000  Level FlightAware ADS-B
Sat 10:23:13 AM 63.0440 -18.5570 267° West 454 522 37,000  Level FlightAware ADS-B
Sat 10:23:51 AM 63.0400 -18.7250 267° West 454 522 37,000  Level FlightAware ADS-B
Sat 10:24:27 AM 63.0350 -18.9000 266° West 454 522 37,000  Level FlightAware ADS-B
Sat 10:25:03 AM 63.0300 -19.0640 266° West 454 522 37,000  Level FlightAware ADS-B
Sat 10:25:37 AM 63.0260 -19.2220 267° West 455 524 37,000  Level FlightAware ADS-B
Sat 10:26:14 AM 63.0210 -19.3880 266° West 455 524 37,000  Level FlightAware ADS-B
Sat 10:26:45 AM 63.0160 -19.5310 266° West 455 524 37,000  Level FlightAware ADS-B
Sat 10:27:21 AM 63.0100 -19.7010 266° West 454 522 37,000  Level FlightAware ADS-B
Sat 10:27:58 AM 63.0070 -19.8720 268° West 458 527 37,000  Level FlightAware ADS-B
Sat 10:28:31 AM 63.0120 -20.0230 274° West 462 532 37,000  Level FlightAware ADS-B
Sat 10:29:07 AM 63.0270 -20.1900 281° West 468 539 37,000  Level FlightAware ADS-B
Sat 10:29:41 AM 63.0480 -20.3460 287° West 471 542 37,000  Level FlightAware ADS-B
Sat 10:30:15 AM 63.0680 -20.4940 287° West 470 541 37,000  Level FlightAware ADS-B
Sat 10:30:52 AM 63.0910 -20.6630 287° West 470 541 37,000  Level FlightAware ADS-B
Sat 10:31:24 AM 63.1120 -20.8200 287° West 470 541 37,000  Level FlightAware ADS-B
Sat 10:32:01 AM 63.1340 -20.9890 286° West 469 540 37,000  Level FlightAware ADS-B
Sat 10:32:37 AM 63.1560 -21.1530 287° West 470 541 37,000  Level FlightAware ADS-B
Sat 10:33:11 AM 63.1760 -21.3110 286° West 471 542 37,000  Level FlightAware ADS-B
Sat 10:33:45 AM 63.1960 -21.4670 286° West 470 541 37,000  Level FlightAware ADS-B
Sat 10:34:23 AM 63.2180 -21.6440 285° West 470 541 37,000  Level FlightAware ADS-B
Sat 10:34:55 AM 63.2370 -21.7930 286° West 469 540 37,000  Level FlightAware ADS-B
Sat 10:35:31 AM 63.2580 -21.9600 286° West 469 540 37,000  Level FlightAware ADS-B
Sat 10:36:08 AM 63.2780 -22.1270 285° West 468 539 37,000  Level FlightAware ADS-B
Sat 10:36:42 AM 63.2970 -22.2850 285° West 468 539 37,000  Level FlightAware ADS-B
Sat 10:37:16 AM 63.3160 -22.4430 285° West 469 540 37,000  Level FlightAware ADS-B
Sat 10:37:51 AM 63.3350 -22.6000 285° West 470 541 37,000  Level FlightAware ADS-B
Sat 10:38:28 AM 63.3560 -22.7760 285° West 472 543 37,000  Level FlightAware ADS-B
Sat 10:39:04 AM 63.3750 -22.9460 284° West 472 543 37,000  Level FlightAware ADS-B
Sat 10:39:40 AM 63.3950 -23.1170 285° West 474 545 37,000  Level FlightAware ADS-B
Sat 10:40:12 AM 63.4120 -23.2700 284° West 473 544 37,000  Level FlightAware ADS-B
Sat 10:40:46 AM 63.4300 -23.4290 284° West 474 545 37,000  Level FlightAware ADS-B
Sat 10:41:24 AM 63.4500 -23.6080 284° West 472 543 37,000  Level FlightAware ADS-B
Sat 10:41:56 AM 63.4670 -23.7600 284° West 473 544 37,000  Level FlightAware ADS-B
Sat 10:42:32 AM 63.4850 -23.9310 283° West 474 545 37,000  Level FlightAware ADS-B
Sat 10:43:08 AM 63.5040 -24.1020 284° West 473 544 37,000  Level FlightAware ADS-B
Sat 10:43:44 AM 63.5220 -24.2750 283° West 474 545 37,000  Level FlightAware ADS-B
Sat 10:44:14 AM 63.5370 -24.4190 283° West 475 547 37,000  Level FlightAware ADS-B
Sat 10:44:52 AM 63.5550 -24.5910 283° West 477 549 37,000  Level FlightAware ADS-B
Sat 10:45:28 AM 63.5730 -24.7740 283° West 478 550 37,000  Level FlightAware ADS-B
Sat 10:46:01 AM 63.5900 -24.9340 284° West 479 551 37,000  Level FlightAware ADS-B
Sat 10:46:36 AM 63.6060 -25.1020 282° West 480 552 37,000  Level FlightAware ADS-B
Sat 10:47:14 AM 63.6240 -25.2870 282° West 480 552 37,000  Level FlightAware ADS-B
Sat 10:47:48 AM 63.6400 -25.4530 282° West 480 552 37,000  Level FlightAware ADS-B
Sat 10:48:18 AM 63.6540 -25.5990 282° West 479 551 37,000  Level FlightAware ADS-B
Sat 10:48:58 AM 63.6730 -25.7940 282° West 479 551 37,000  Level FlightAware ADS-B
Sat 10:49:34 AM 63.6890 -25.9650 282° West 479 551 37,000  Level FlightAware ADS-B
Sat 10:50:06 AM 63.7030 -26.1240 281° West 478 550 37,000  Level FlightAware ADS-B
Sat 10:50:43 AM 63.7200 -26.3050 282° West 478 550 37,000  Level FlightAware ADS-B
Sat 10:51:15 AM 63.7330 -26.4620 281° West 478 550 37,000  Level FlightAware ADS-B
Sat 10:51:54 AM 63.7500 -26.6490 282° West 477 549 37,000  Level FlightAware ADS-B
Sat 10:52:26 AM 63.7630 -26.7960 281° West 477 549 37,000  Level FlightAware ADS-B
Sat 10:53:04 AM 63.7790 -26.9840 281° West 477 549 37,000  Level FlightAware ADS-B
Sat 10:53:38 AM 63.7920 -27.1480 280° West 476 548 37,000  Level FlightAware ADS-B
Sat 10:54:14 AM 63.8070 -27.3260 281° West 476 548 37,000  Level FlightAware ADS-B
Sat 10:54:47 AM 63.8210 -27.4920 281° West 474 545 37,000  Level FlightAware ADS-B
Sat 10:55:23 AM 63.8340 -27.6600 280° West 473 544 37,000  Level FlightAware ADS-B
Sat 10:55:58 AM 63.8480 -27.8340 280° West 473 544 37,000  Level FlightAware ADS-B
Sat 10:56:30 AM 63.8600 -27.9960 280° West 472 543 37,000  Level FlightAware ADS-B
Sat 10:57:08 AM 63.8750 -28.1830 280° West 472 543 37,000  Level FlightAware ADS-B
Sat 10:57:42 AM 63.8870 -28.3480 279° West 473 544 37,000  Level FlightAware ADS-B
Sat 10:58:18 AM 63.9000 -28.5240 280° West 475 547 37,000  Level FlightAware ADS-B
Sat 10:58:48 AM 63.9110 -28.6720 280° West 476 548 37,000  Level FlightAware ADS-B
Sat 10:59:28 AM 63.9250 -28.8680 279° West 479 551 37,000  Level FlightAware ADS-B
Sat 11:00:03 AM 63.9370 -29.0400 279° West 478 550 37,000  Level FlightAware ADS-B
Sat 11:00:39 AM 63.9490 -29.2170 279° West 478 550 37,000  Level FlightAware ADS-B
Sat 11:01:13 AM 63.9600 -29.3860 279° West 478 550 37,000  Level FlightAware ADS-B
Sat 11:01:46 AM 63.9710 -29.5510 279° West 478 550 37,000  Level FlightAware ADS-B
Sat 11:02:19 AM 63.9820 -29.7090 279° West 478 550 37,000  Level FlightAware ADS-B
Sat 11:02:58 AM 63.9950 -29.9110 278° West 478 550 37,000  Level FlightAware ADS-B
Sat 11:03:31 AM 64.0030 -30.0740 276° West 474 545 37,000  Level FlightAware ADS-B
Sat 11:04:10 AM 64.0090 -30.2660 274° West 476 548 37,000  Level FlightAware ADS-B
Sat 11:04:44 AM 64.0150 -30.4380 275° West 477 549 37,000  Level FlightAware ADS-B
Sat 11:05:20 AM 64.0200 -30.6190 274° West 478 550 37,000  Level FlightAware ADS-B
Sat 11:05:47 AM 64.0240 -30.7440 274° West 478 550 37,000  Level FlightAware ADS-B
Sat 11:06:26 AM 64.0300 -30.9400 274° West 476 548 37,000  Level FlightAware ADS-B
Sat 11:07:02 AM 64.0350 -31.1280 274° West 477 549 37,000  Level FlightAware ADS-B
Sat 11:07:36 AM 64.0390 -31.2930 273° West 477 549 37,000  Level FlightAware ADS-B
Sat 11:08:13 AM 64.0440 -31.4810 274° West 477 549 37,000  Level FlightAware ADS-B
Sat 11:08:49 AM 64.0480 -31.6610 273° West 477 549 37,000  Level FlightAware ADS-B
Sat 11:09:27 AM 64.0520 -31.8280 273° West 477 549 37,000  Level FlightAware ADS-B
Sat 11:10:03 AM 64.0550 -31.9820 273° West 477 549 37,000  Level FlightAware ADS-B
Sat 11:10:39 AM 64.0590 -32.1360 273° West 477 549 37,000  Level FlightAware ADS-B
Sat 11:11:14 AM 64.0620 -32.2860 273° West 477 549 37,000  Level FlightAware ADS-B
Sat 11:12:04 AM 64.0670 -32.5000 273° West 477 549 37,000  Level FlightAware ADS-B
Sat 11:12:39 AM 64.0710 -32.6500 274° West 477 549 37,000  Level FlightAware ADS-B
Sat 11:13:16 AM 64.0740 -32.8090 273° West 477 549 37,000  Level FlightAware ADS-B
Sat 11:13:52 AM 64.0780 -32.9630 273° West 477 549 37,000  Level FlightAware ADS-B
Sat 11:14:30 AM 64.0810 -33.1260 272° West 477 549 37,000  Level FlightAware ADS-B
Sat 11:15:08 AM 64.0850 -33.2890 273° West 477 549 37,000  Level FlightAware ADS-B
Sat 11:15:44 AM 64.0890 -33.4430 273° West 477 549 37,000  Level FlightAware ADS-B
Sat 11:16:21 AM 64.0920 -33.6010 273° West 477 549 37,000  Level FlightAware ADS-B
Sat 11:16:55 AM 64.0950 -33.7470 273° West 477 549 37,000  Level FlightAware ADS-B
Sat 11:17:31 AM 64.0990 -33.9020 273° West 477 549 37,000  Level FlightAware ADS-B
Sat 11:18:07 AM 64.1020 -34.0560 273° West 477 549 37,000  Level FlightAware ADS-B
Sat 11:18:43 AM 64.1060 -34.2100 273° West 477 549 37,000  Level FlightAware ADS-B
Sat 11:21:00 AM 63.9631 -34.7910 241° Southwest  Level Estimated
Sat 11:22:00 AM 63.8998 -35.0436 240° Southwest  Level Estimated
Sat 11:23:00 AM 63.8360 -35.2950 240° Southwest  Level Estimated
Sat 11:24:00 AM 63.7718 -35.5453 240° Southwest  Level Estimated
Sat 11:25:00 AM 63.7072 -35.7944 240° Southwest  Level Estimated
Sat 11:26:00 AM 63.6422 -36.0424 240° Southwest  Level Estimated
Sat 11:27:00 AM 63.5767 -36.2893 239° Southwest  Level Estimated
Sat 11:28:00 AM 63.5108 -36.5351 239° Southwest  Level Estimated
Sat 11:29:00 AM 63.4445 -36.7797 239° Southwest  Level Estimated
Sat 11:30:00 AM 63.3778 -37.0231 239° Southwest  Level Estimated
Sat 11:31:00 AM 63.3106 -37.2655 238° Southwest  Level Estimated
Sat 11:32:00 AM 63.2431 -37.5067 238° Southwest  Level Estimated
Sat 11:33:00 AM 63.1751 -37.7468 238° Southwest  Level Estimated
Sat 11:34:00 AM 63.1068 -37.9857 238° Southwest  Level Estimated
Sat 11:35:00 AM 63.0380 -38.2235 238° Southwest  Level Estimated
Sat 11:36:00 AM 62.9688 -38.4602 237° Southwest  Level Estimated
Sat 11:37:00 AM 62.8993 -38.6958 237° Southwest  Level Estimated
Sat 11:38:00 AM 62.8293 -38.9303 237° Southwest  Level Estimated
Sat 11:39:00 AM 62.7590 -39.1636 237° Southwest  Level Estimated
Sat 11:40:00 AM 62.6883 -39.3959 237° Southwest  Level Estimated
Sat 11:41:00 AM 62.6172 -39.6270 236° Southwest  Level Estimated
Sat 11:42:00 AM 62.5457 -39.8570 236° Southwest  Level Estimated
Sat 11:43:00 AM 62.4739 -40.0859 236° Southwest  Level Estimated
Sat 11:44:00 AM 62.4016 -40.3138 236° Southwest  Level Estimated
Sat 11:45:00 AM 62.3290 -40.5405 235° Southwest  Level Estimated
Sat 11:46:00 AM 62.2561 -40.7661 235° Southwest  Level Estimated
Sat 11:47:00 AM 62.1827 -40.9906 235° Southwest  Level Estimated
Sat 11:48:00 AM 62.1091 -41.2141 235° Southwest  Level Estimated
Sat 11:49:00 AM 62.0350 -41.4364 235° Southwest  Level Estimated
Sat 11:50:00 AM 61.9606 -41.6577 234° Southwest  Level Estimated
Sat 11:51:00 AM 61.8858 -41.8779 234° Southwest  Level Estimated
Sat 11:52:00 AM 61.8107 -42.0970 234° Southwest  Level Estimated
Sat 11:53:00 AM 61.7353 -42.3150 234° Southwest  Level Estimated
Sat 11:54:00 AM 61.6595 -42.5320 234° Southwest  Level Estimated
Sat 11:55:00 AM 61.5833 -42.7479 234° Southwest  Level Estimated
Sat 11:56:00 AM 61.5069 -42.9627 233° Southwest  Level Estimated
Sat 11:57:00 AM 61.4300 -43.1765 233° Southwest  Level Estimated
Sat 11:58:00 AM 61.3529 -43.3893 233° Southwest  Level Estimated
Sat 11:59:00 AM 61.2754 -43.6010 233° Southwest  Level Estimated
Sat 12:00:00 PM 61.1976 -43.8116 233° Southwest  Level Estimated
Sat 12:01:00 PM 61.1195 -44.0212 232° Southwest  Level Estimated
Sat 12:02:00 PM 61.0410 -44.2298 232° Southwest  Level Estimated
Sat 12:03:00 PM 60.9623 -44.4373 232° Southwest  Level Estimated
Sat 12:04:00 PM 60.8832 -44.6438 232° Southwest  Level Estimated
Sat 12:05:00 PM 60.8038 -44.8493 232° Southwest  Level Estimated
Sat 12:06:00 PM 60.7240 -45.0538 231° Southwest  Level Estimated
Sat 12:06:59 PM 63.1000 -49.2720 231° Southwest 490 564 37,000  Level FlightAware ADS-B
Sat 12:07:00 PM 60.6440 -45.2573 231° Southwest  Level Estimated
Sat 12:07:41 PM 63.0740 -49.4570 253° West 491 565 37,000  Level FlightAware ADS-B
Sat 12:08:24 PM 63.0440 -49.6820 254° West 493 567 37,000  Level FlightAware ADS-B
Sat 12:08:59 PM 63.0210 -49.8530 254° West 494 568 37,000  Level FlightAware ADS-B
Sat 12:09:35 PM 62.9970 -50.0220 253° West 495 570 37,000  Level FlightAware ADS-B
Sat 12:10:09 PM 62.9730 -50.1790 251° West 496 571 37,000  Level FlightAware ADS-B
Sat 12:10:43 PM 62.9470 -50.3450 251° West 497 572 37,000  Level FlightAware ADS-B
Sat 12:11:27 PM 62.9160 -50.5360 250° West 497 572 37,000  Level FlightAware ADS-B
Sat 12:12:01 PM 62.8880 -50.7210 252° West 492 566 37,000  Level FlightAware ADS-B
Sat 12:12:33 PM 62.8640 -50.8690 250° West 491 565 37,000  Level FlightAware ADS-B
Sat 12:13:07 PM 62.8390 -51.0240 251° West 491 565 37,000  Level FlightAware ADS-B
Sat 12:13:47 PM 62.8080 -51.2150 251° West 490 564 37,000  Level FlightAware ADS-B
Sat 12:14:23 PM 62.7810 -51.3800 250° West 490 564 37,000  Level FlightAware ADS-B
Sat 12:14:59 PM 62.7540 -51.5430 250° West 493 567 37,000  Level FlightAware ADS-B
Sat 12:15:31 PM 62.7290 -51.6940 250° West 492 566 37,000  Level FlightAware ADS-B
Sat 12:16:03 PM 62.7040 -51.8420 250° West 493 567 37,000  Level FlightAware ADS-B
Sat 12:16:41 PM 62.6740 -52.0200 250° West 492 566 37,000  Level FlightAware ADS-B
Sat 12:17:17 PM 62.6450 -52.1900 250° West 494 568 37,000  Level FlightAware ADS-B
Sat 12:17:49 PM 62.6200 -52.3350 250° West 494 568 37,000  Level FlightAware ADS-B
Sat 12:18:16 PM 62.5980 -52.4590 249° West 493 567 37,000  Level FlightAware ADS-B
Sat 12:18:56 PM 62.5700 -52.6160 249° West 493 567 37,000  Level FlightAware ADS-B
Sat 12:19:29 PM 62.5380 -52.7990 249° West 491 565 37,000  Level FlightAware ADS-B
Sat 12:20:05 PM 62.5090 -52.9620 249° West 490 564 37,000  Level FlightAware ADS-B
Sat 12:20:51 PM 62.4750 -53.1470 248° West 489 563 37,000  Level FlightAware ADS-B
Sat 12:21:46 PM 62.4290 -53.4010 249° West 488 562 37,000  Level FlightAware ADS-B
Sat 12:22:22 PM 62.3990 -53.5650 249° West 490 564 37,000  Level FlightAware ADS-B
Sat 12:22:58 PM 62.3730 -53.7040 248° West 490 564 37,000  Level FlightAware ADS-B
Sat 12:23:34 PM 62.3470 -53.8430 248° West 490 564 37,000  Level FlightAware ADS-B
Sat 12:24:10 PM 62.3210 -53.9810 248° West 490 564 37,000  Level FlightAware ADS-B
Sat 12:24:47 PM 62.2940 -54.1230 248° West 490 564 37,000  Level FlightAware ADS-B
Sat 12:25:23 PM 62.2680 -54.2620 248° West 490 564 37,000  Level FlightAware ADS-B
Sat 12:25:59 PM 62.2420 -54.4000 248° West 490 564 37,000  Level FlightAware ADS-B
Sat 12:26:35 PM 62.2160 -54.5380 248° West 490 564 37,000  Level FlightAware ADS-B
Sat 12:27:11 PM 62.1900 -54.6760 248° West 490 564 37,000  Level FlightAware ADS-B
Sat 12:27:48 PM 62.1630 -54.8170 248° West 490 564 37,000  Level FlightAware ADS-B
Sat 12:28:22 PM 62.1390 -54.9470 248° West 490 564 37,000  Level FlightAware ADS-B
Sat 12:28:59 PM 62.1120 -55.0890 248° West 490 564 37,000  Level FlightAware ADS-B
Sat 12:29:35 PM 62.0860 -55.2260 248° West 490 564 37,000  Level FlightAware ADS-B
Sat 12:30:12 PM 62.0590 -55.3670 248° West 490 564 37,000  Level FlightAware ADS-B
Sat 12:30:48 PM 62.0330 -55.5040 248° West 490 564 37,000  Level FlightAware ADS-B
Sat 12:31:23 PM 62.0080 -55.6380 248° West 490 564 37,000  Level FlightAware ADS-B
Sat 12:34:00 PM 61.8730 -56.2767 246° West  Level FlightAware Approximate
Sat 12:35:00 PM 61.8206 -56.5193 246° West  Level FlightAware Approximate
Sat 12:36:00 PM 61.7678 -56.7611 245° Southwest  Level FlightAware Approximate
Sat 12:37:00 PM 61.7146 -57.0020 245° Southwest  Level FlightAware Approximate
Sat 12:37:08 PM 61.6167 -57.4000 244° Southwest 390 449 37,000  Level Gander Center
Sat 12:38:00 PM 61.6610 -57.2421 245° Southwest  Level FlightAware Approximate
Sat 12:38:08 PM 61.5500 -57.7000 245° Southwest 500 575 37,000  Level Gander Center
Sat 12:39:00 PM 61.6069 -57.4813 245° Southwest  Level FlightAware Approximate
Sat 12:39:08 PM 61.4833 -57.9167 237° Southwest 490 564 37,000  Level Gander Center
Sat 12:40:00 PM 61.5524 -57.7198 244° Southwest  Level FlightAware Approximate
Sat 12:40:08 PM 61.4333 -58.1500 246° West 480 552 37,000  Level Gander Center
Sat 12:40:44 PM 61.3833 -58.2667 228° Southwest 480 552 37,000  Level Montreal Center
Sat 12:41:00 PM 61.4975 -57.9574 244° Southwest  Level FlightAware Approximate
Sat 12:41:44 PM 61.3333 -58.5500 250° West 480 552 37,000  Level Montreal Center
Sat 12:42:00 PM 61.4422 -58.1941 244° Southwest  Level FlightAware Approximate
Sat 12:42:44 PM 61.2833 -58.7833 246° West 480 552 37,000  Level Montreal Center
Sat 12:43:44 PM 61.2167 -59.0000 237° Southwest 470 541 37,000  Level Montreal Center
Sat 12:44:44 PM 61.1667 -59.2500 248° West 470 541 37,000  Level Montreal Center
Sat 12:45:44 PM 61.1167 -59.4833 246° West 470 541 37,000  Level Montreal Center
Sat 12:46:44 PM 61.0500 -59.7333 241° Southwest 470 541 37,000  Level Montreal Center
Sat 12:47:44 PM 61.0000 -59.9667 246° West 470 541 37,000  Level Montreal Center
Sat 12:48:44 PM 60.9500 -60.2333 249° West 470 541 37,000  Level Montreal Center
Sat 12:49:44 PM 60.9167 -60.5000 256° West 470 541 37,000  Level Montreal Center
Sat 12:50:44 PM 60.8833 -60.7333 254° West 470 541 37,000  Level Montreal Center
Sat 12:51:44 PM 60.8333 -61.0000 249° West 460 529 37,000  Level Montreal Center
Sat 12:52:44 PM 60.8000 -61.2667 256° West 460 529 37,000  Level Montreal Center
Sat 12:53:44 PM 60.7500 -61.4833 245° Southwest 460 529 37,000  Level Montreal Center
Sat 12:54:44 PM 60.7167 -61.7500 256° West 460 529 37,000  Level Montreal Center
Sat 12:55:44 PM 60.6667 -61.9833 246° West 450 518 37,000  Level Montreal Center
Sat 12:56:44 PM 60.6333 -62.2333 255° West 450 518 37,000  Level Montreal Center
Sat 12:57:44 PM 60.6000 -62.5000 256° West 450 518 37,000  Level Montreal Center
Sat 12:58:44 PM 60.5500 -62.7167 245° Southwest 460 529 37,000  Level Montreal Center
Sat 12:59:44 PM 60.5167 -62.9833 256° West 460 529 37,000  Level Montreal Center
Sat 01:00:44 PM 60.4667 -63.2000 245° Southwest 470 541 37,000  Level Montreal Center
Sat 01:01:44 PM 60.4167 -63.4667 249° West 470 541 37,000  Level Montreal Center
Sat 01:02:44 PM 60.3667 -63.7333 249° West 470 541 37,000 50 Level Montreal Center
Sat 01:03:44 PM 60.3167 -63.9833 248° West 460 529 37,100 250 Climbing Montreal Center
Sat 01:04:44 PM 60.2833 -64.2000 253° West 440 506 37,500 450 Climbing Montreal Center
Sat 01:05:44 PM 60.2333 -64.4167 245° Southwest 440 506 38,000 250 Climbing Montreal Center
Sat 01:06:44 PM 60.1833 -64.6833 249° West 460 529 38,000  Level Montreal Center
Sat 01:07:44 PM 60.1333 -64.9000 245° Southwest 460 529 38,000  Level Montreal Center
Sat 01:08:44 PM 60.0667 -65.1167 238° Southwest 470 541 38,000  Level Montreal Center
Sat 01:09:44 PM 59.9667 -65.3333 227° Southwest 480 552 38,000  Level Montreal Center
Sat 01:10:44 PM 59.8833 -65.4833 222° Southwest 480 552 38,000  Level Montreal Center
Sat 01:11:44 PM 59.7833 -65.6833 225° Southwest 480 552 38,000  Level Montreal Center
Sat 01:12:44 PM 59.6667 -65.8500 216° Southwest 480 552 38,000  Level Montreal Center
Sat 01:13:44 PM 59.5833 -66.0167 225° Southwest 480 552 38,000  Level Montreal Center
Sat 01:14:44 PM 59.4833 -66.1833 220° Southwest 480 552 38,000  Level Montreal Center
Sat 01:15:44 PM 59.3500 -66.3833 217° Southwest 480 552 38,000  Level Montreal Center
Sat 01:16:44 PM 59.2667 -66.5333 223° Southwest 480 552 38,000  Level Montreal Center
Sat 01:17:44 PM 59.1667 -66.7333 226° Southwest 480 552 38,000  Level Montreal Center
Sat 01:18:44 PM 59.0500 -66.8833 213° Southwest 480 552 38,000  Level Montreal Center
Sat 01:19:44 PM 58.9667 -67.0500 226° Southwest 480 552 38,000  Level Montreal Center
Sat 01:20:44 PM 58.8500 -67.2000 214° Southwest 480 552 38,000  Level Montreal Center
Sat 01:21:44 PM 58.7500 -67.4000 226° Southwest 480 552 38,000  Level Montreal Center
Sat 01:22:44 PM 58.6500 -67.5500 218° Southwest 470 541 38,000  Level Montreal Center
Sat 01:23:44 PM 58.5500 -67.7000 218° Southwest 470 541 38,000  Level Montreal Center
Sat 01:24:44 PM 58.4500 -67.8500 218° Southwest 470 541 38,000  Level Montreal Center
Sat 01:25:44 PM 58.3500 -68.0000 218° Southwest 470 541 38,000  Level Montreal Center
Sat 01:26:44 PM 58.2333 -68.1833 220° Southwest 470 541 38,000  Level Montreal Center
Sat 01:27:44 PM 58.1500 -68.3333 224° Southwest 470 541 38,000  Level Montreal Center
Sat 01:28:44 PM 58.0333 -68.4833 214° Southwest 480 552 38,000  Level Montreal Center
Sat 01:29:44 PM 57.9333 -68.6333 219° Southwest 470 541 38,000  Level Montreal Center
Sat 01:30:44 PM 57.8167 -68.7833 214° Southwest 470 541 38,000  Level Montreal Center
Sat 01:31:44 PM 57.7000 -68.9333 215° Southwest 470 541 38,000  Level Montreal Center
Sat 01:32:44 PM 57.6167 -69.0833 224° Southwest 470 541 38,000  Level Montreal Center
Sat 01:33:44 PM 57.5000 -69.2167 212° Southwest 480 552 38,000  Level Montreal Center
Sat 01:34:44 PM 57.3833 -69.3667 215° Southwest 480 552 38,000  Level Montreal Center
Sat 01:35:44 PM 57.2667 -69.5167 215° Southwest 480 552 38,000  Level Montreal Center
Sat 01:36:44 PM 57.1667 -69.6500 216° Southwest 480 552 38,000  Level Montreal Center
Sat 01:37:44 PM 57.0667 -69.8000 219° Southwest 480 552 38,000  Level Montreal Center
Sat 01:38:44 PM 56.9500 -69.9333 212° Southwest 470 541 38,000  Level Montreal Center
Sat 01:39:44 PM 56.8333 -70.0833 215° Southwest 470 541 38,000  Level Montreal Center
Sat 01:40:44 PM 56.7333 -70.2167 216° Southwest 470 541 38,000  Level Montreal Center
Sat 01:41:44 PM 56.6333 -70.3667 220° Southwest 470 541 38,000  Level Montreal Center
Sat 01:42:44 PM 56.5167 -70.5000 212° Southwest 470 541 38,000  Level Montreal Center
Sat 01:43:44 PM 56.4000 -70.6000 205° Southwest 470 541 38,000  Level Montreal Center
Sat 01:44:44 PM 56.3000 -70.7500 220° Southwest 480 552 38,000  Level Montreal Center
Sat 01:45:44 PM 56.1833 -70.8833 212° Southwest 470 541 38,000  Level Montreal Center
Sat 01:46:44 PM 56.0667 -71.0167 213° Southwest 470 541 38,000  Level Montreal Center
Sat 01:47:44 PM 55.9667 -71.1500 217° Southwest 470 541 38,000  Level Montreal Center
Sat 01:48:44 PM 55.8667 -71.2833 217° Southwest 470 541 38,000  Level Montreal Center
Sat 01:49:44 PM 55.7500 -71.4167 213° Southwest 480 552 38,000  Level Montreal Center
Sat 01:50:44 PM 55.6333 -71.5500 213° Southwest 470 541 38,000  Level Montreal Center
Sat 01:51:44 PM 55.5167 -71.6833 213° Southwest 480 552 38,000  Level Montreal Center
Sat 01:52:44 PM 55.4000 -71.8167 213° Southwest 470 541 38,000  Level Montreal Center
Sat 01:53:45 PM 55.3167 -71.9333 219° Southwest 470 541 38,000  Level Montreal Center
Sat 01:54:44 PM 55.2000 -72.0667 213° Southwest 470 541 38,000  Level Montreal Center
Sat 01:55:44 PM 55.0833 -72.2000 213° Southwest 470 541 38,000  Level Montreal Center
Sat 01:56:44 PM 54.9667 -72.3167 210° Southwest 470 541 38,000  Level Montreal Center
Sat 01:57:44 PM 54.8667 -72.4167 210° Southwest 470 541 38,000  Level Montreal Center
Sat 01:58:44 PM 54.7333 -72.5833 216° Southwest 470 541 38,000  Level Montreal Center
Sat 01:59:44 PM 54.6500 -72.7000 219° Southwest 470 541 38,000  Level Montreal Center
Sat 02:00:44 PM 54.5333 -72.8000 206° Southwest 470 541 38,000  Level Montreal Center
Sat 02:01:44 PM 54.4167 -72.9167 210° Southwest 470 541 38,000  Level Montreal Center
Sat 02:02:44 PM 54.3167 -73.0500 218° Southwest 470 541 38,000  Level Montreal Center
Sat 02:03:44 PM 54.2000 -73.1667 210° Southwest 470 541 38,000  Level Montreal Center
Sat 02:04:44 PM 54.0833 -73.3000 214° Southwest 460 529 38,000  Level Montreal Center
Sat 02:05:44 PM 53.9833 -73.4167 214° Southwest 460 529 38,000  Level Montreal Center
Sat 02:06:44 PM 53.8667 -73.5333 211° Southwest 460 529 38,000  Level Montreal Center
Sat 02:07:44 PM 53.7500 -73.6333 207° Southwest 460 529 38,000  Level Montreal Center
Sat 02:08:44 PM 53.6500 -73.7500 215° Southwest 470 541 38,000  Level Montreal Center
Sat 02:09:44 PM 53.5333 -73.8333 203° Southwest 470 541 38,000  Level Montreal Center
Sat 02:10:44 PM 53.4000 -73.9500 208° Southwest 470 541 38,000  Level Montreal Center
Sat 02:11:44 PM 53.2833 -74.0500 207° Southwest 470 541 38,000  Level Montreal Center
Sat 02:12:44 PM 53.1667 -74.1333 203° Southwest 470 541 38,000  Level Montreal Center
Sat 02:13:44 PM 53.0500 -74.2500 211° Southwest 470 541 38,000  Level Montreal Center
Sat 02:14:44 PM 52.9500 -74.3500 211° Southwest 460 529 38,000  Level Montreal Center
Sat 02:15:44 PM 52.8333 -74.4333 203° Southwest 470 541 38,000  Level Montreal Center
Sat 02:16:44 PM 52.7167 -74.5167 203° Southwest 460 529 38,000  Level Montreal Center
Sat 02:17:44 PM 52.6000 -74.6333 211° Southwest 470 541 38,000  Level Montreal Center
Sat 02:18:44 PM 52.4833 -74.7167 204° Southwest 470 541 38,000  Level Montreal Center
Sat 02:19:44 PM 52.3500 -74.8000 201° Southwest 470 541 38,000  Level Montreal Center
Sat 02:20:44 PM 52.2333 -74.9000 208° Southwest 470 541 38,000  Level Montreal Center
Sat 02:21:44 PM 52.1000 -75.0000 205° Southwest 470 541 38,000  Level Montreal Center
Sat 02:22:44 PM 52.0000 -75.0833 207° Southwest 450 518 38,000  Level Montreal Center
Sat 02:23:44 PM 51.8833 -75.1667 204° Southwest 460 529 38,000  Level Montreal Center
Sat 02:24:44 PM 51.7667 -75.2500 204° Southwest 460 529 38,000  Level Montreal Center
Sat 02:25:44 PM 51.6500 -75.3333 204° Southwest 460 529 38,000  Level Montreal Center
Sat 02:26:44 PM 51.5333 -75.4500 212° Southwest 460 529 38,000  Level Montreal Center
Sat 02:27:44 PM 51.4167 -75.5333 204° Southwest 460 529 38,000  Level Montreal Center
Sat 02:28:44 PM 51.3000 -75.6167 204° Southwest 460 529 38,000  Level Montreal Center
Sat 02:29:44 PM 51.1833 -75.7000 204° Southwest 460 529 38,000  Level Montreal Center
Sat 02:30:44 PM 51.0667 -75.8000 208° Southwest 460 529 38,000  Level Montreal Center
Sat 02:31:44 PM 50.9500 -75.8833 204° Southwest 460 529 38,000  Level Montreal Center
Sat 02:32:44 PM 50.8333 -75.9667 204° Southwest 460 529 38,000  Level Montreal Center
Sat 02:33:44 PM 50.7167 -76.0500 204° Southwest 460 529 38,000  Level Montreal Center
Sat 02:34:44 PM 50.6167 -76.1500 212° Southwest 460 529 38,000  Level Montreal Center
Sat 02:35:44 PM 50.4833 -76.2333 202° Southwest 460 529 38,000  Level Montreal Center
Sat 02:36:44 PM 50.3833 -76.3167 208° Southwest 460 529 38,000  Level Montreal Center
Sat 02:37:44 PM 50.2500 -76.3833 198° South 460 529 38,000  Level Montreal Center
Sat 02:38:44 PM 50.1500 -76.4833 213° Southwest 470 541 38,000  Level Montreal Center
Sat 02:39:44 PM 50.0000 -76.5667 200° South 460 529 38,000  Level Montreal Center
Sat 02:40:44 PM 49.9000 -76.6500 208° Southwest 470 541 38,000  Level Montreal Center
Sat 02:41:44 PM 49.7667 -76.7167 198° South 460 529 38,000  Level Montreal Center
Sat 02:42:44 PM 49.6500 -76.8000 205° Southwest 460 529 38,000  Level Montreal Center
Sat 02:43:44 PM 49.5333 -76.9000 209° Southwest 450 518 38,000  Level Montreal Center
Sat 02:44:44 PM 49.4167 -76.9500 196° South 470 541 38,000  Level Montreal Center
Sat 02:45:44 PM 49.3000 -77.0500 209° Southwest 470 541 38,000  Level Montreal Center
Sat 02:46:44 PM 49.1833 -77.1167 200° South 450 518 38,000  Level Montreal Center
Sat 02:47:44 PM 49.0667 -77.2000 205° Southwest 470 541 38,000  Level Montreal Center
Sat 02:48:44 PM 48.9500 -77.2667 201° Southwest 460 529 38,000  Level Montreal Center
Sat 02:49:44 PM 48.8167 -77.3500 202° Southwest 460 529 38,000  Level Montreal Center
Sat 02:50:44 PM 48.7000 -77.4167 201° Southwest 460 529 38,000  Level Montreal Center
Sat 02:56:31 PM 48.0250 -77.8370 201° Southwest 461 531 38,000  Level FlightAware ADS-B
Sat 02:57:13 PM 47.9380 -77.8900 202° Southwest 460 529 38,000  Level FlightAware ADS-B
Sat 02:57:44 PM 47.8790 -77.9260 202° Southwest 459 528 38,000  Level FlightAware ADS-B
Sat 02:58:17 PM 47.8190 -77.9620 202° Southwest 459 528 38,000  Level FlightAware ADS-B
Sat 02:58:56 PM 47.7340 -78.0130 202° Southwest 458 527 38,000  Level FlightAware ADS-B
Sat 02:59:32 PM 47.6630 -78.0560 202° Southwest 457 526 38,000  Level FlightAware ADS-B
Sat 03:00:05 PM 47.6000 -78.0940 202° Southwest 456 525 38,000  Level FlightAware ADS-B
Sat 03:00:42 PM 47.5260 -78.1380 202° Southwest 455 524 38,000  Level FlightAware ADS-B
Sat 03:01:14 PM 47.4650 -78.1740 202° Southwest 454 522 38,000  Level FlightAware ADS-B
Sat 03:01:52 PM 47.3890 -78.2190 202° Southwest 454 522 38,000  Level FlightAware ADS-B
Sat 03:02:25 PM 47.3270 -78.2560 202° Southwest 454 522 38,000  Level FlightAware ADS-B
Sat 03:03:00 PM 47.2580 -78.2970 202° Southwest 454 522 38,000  Level FlightAware ADS-B
Sat 03:03:37 PM 47.1860 -78.3390 202° Southwest 453 521 38,000  Level FlightAware ADS-B
Sat 03:04:08 PM 47.1260 -78.3740 202° Southwest 453 521 38,000  Level FlightAware ADS-B
Sat 03:04:46 PM 47.0530 -78.4170 202° Southwest 453 521 38,000  Level FlightAware ADS-B
Sat 03:05:22 PM 46.9820 -78.4580 202° Southwest 453 521 38,000  Level FlightAware ADS-B
Sat 03:05:54 PM 46.9190 -78.4950 202° Southwest 453 521 38,000  Level FlightAware ADS-B
Sat 03:06:30 PM 46.8500 -78.5350 202° Southwest 452 520 38,000  Level FlightAware ADS-B
Sat 03:07:08 PM 46.7770 -78.5780 202° Southwest 451 519 38,000  Level FlightAware ADS-B
Sat 03:07:40 PM 46.7140 -78.6140 201° Southwest 451 519 38,000  Level FlightAware ADS-B
Sat 03:08:14 PM 46.6480 -78.6520 202° Southwest 450 518 38,000  Level FlightAware ADS-B
Sat 03:08:51 PM 46.5760 -78.6930 201° Southwest 451 519 38,000  Level FlightAware ADS-B
Sat 03:09:27 PM 46.5070 -78.7320 201° Southwest 451 519 38,000  Level FlightAware ADS-B
Sat 03:10:01 PM 46.4400 -78.7710 202° Southwest 451 519 38,000  Level FlightAware ADS-B
Sat 03:10:35 PM 46.3750 -78.8080 201° Southwest 451 519 38,000  Level FlightAware ADS-B
Sat 03:10:58 PM 46.3300 -78.8340 202° Southwest 451 519 38,000  Level FlightAware ADS-B
Sat 03:11:46 PM 46.2400 -78.8850 201° Southwest 451 519 38,000  Level FlightAware ADS-B
Sat 03:12:23 PM 46.1670 -78.9260 201° Southwest 451 519 38,000  Level FlightAware ADS-B
Sat 03:12:56 PM 46.1020 -78.9620 201° Southwest 449 517 38,000  Level FlightAware ADS-B
Sat 03:13:32 PM 46.0310 -79.0020 201° Southwest 449 517 38,000  Level FlightAware ADS-B
Sat 03:14:09 PM 45.9620 -79.0410 201° Southwest 449 517 38,000  Level FlightAware ADS-B
Sat 03:14:41 PM 45.8980 -79.0760 201° Southwest 450 518 38,000  Level FlightAware ADS-B
Sat 03:15:16 PM 45.8320 -79.1130 201° Southwest 450 518 38,000  Level FlightAware ADS-B
Sat 03:15:55 PM 45.7570 -79.1550 201° Southwest 451 519 38,000  Level FlightAware ADS-B
Sat 03:16:28 PM 45.6900 -79.1920 201° Southwest 451 519 38,000  Level FlightAware ADS-B
Sat 03:17:02 PM 45.6230 -79.2290 201° Southwest 452 520 38,000  Level FlightAware ADS-B
Sat 03:17:40 PM 45.5530 -79.2680 201° Southwest 453 521 38,000  Level FlightAware ADS-B
Sat 03:18:14 PM 45.4860 -79.3050 201° Southwest 453 521 38,000  Level FlightAware ADS-B
Sat 03:18:48 PM 45.4210 -79.3410 201° Southwest 453 521 38,000  Level FlightAware ADS-B
Sat 03:19:25 PM 45.3480 -79.3810 201° Southwest 452 520 38,000  Level FlightAware ADS-B
Sat 03:19:57 PM 45.2850 -79.4150 201° Southwest 451 519 38,000  Level FlightAware ADS-B
Sat 03:20:34 PM 45.2110 -79.4550 201° Southwest 451 519 38,000  Level FlightAware ADS-B
Sat 03:21:11 PM 45.1410 -79.4930 201° Southwest 449 517 38,000  Level FlightAware ADS-B
Sat 03:21:43 PM 45.0760 -79.5280 201° Southwest 448 516 38,000  Level FlightAware ADS-B
Sat 03:22:16 PM 45.0120 -79.5630 201° Southwest 448 516 38,000  Level FlightAware ADS-B
Sat 03:22:55 PM 44.9370 -79.6030 201° Southwest 448 516 38,000  Level FlightAware ADS-B
Sat 03:23:31 PM 44.8670 -79.6410 201° Southwest 448 516 38,000  Level FlightAware ADS-B
Sat 03:24:01 PM 44.8080 -79.6720 200° South 448 516 38,000  Level FlightAware ADS-B
Sat 03:24:38 PM 44.7360 -79.7110 201° Southwest 448 516 38,000  Level FlightAware ADS-B
Sat 03:25:14 PM 44.6690 -79.7470 201° Southwest 448 516 38,000  Level FlightAware ADS-B
Sat 03:25:46 PM 44.6070 -79.7810 201° Southwest 446 513 38,000  Level FlightAware ADS-B
Sat 03:26:23 PM 44.5410 -79.8290 207° Southwest 444 511 38,000  Level FlightAware ADS-B
Sat 03:26:59 PM 44.4760 -79.8870 212° Southwest 445 512 38,000  Level FlightAware ADS-B
Sat 03:27:32 PM 44.4200 -79.9390 214° Southwest 445 512 38,000  Level FlightAware ADS-B
Sat 03:28:09 PM 44.3570 -79.9960 213° Southwest 445 512 38,000  Level FlightAware ADS-B
Sat 03:28:44 PM 44.2960 -80.0510 213° Southwest 445 512 38,000  Level FlightAware ADS-B
Sat 03:29:17 PM 44.2370 -80.1030 212° Southwest 445 512 38,000  Level FlightAware ADS-B
Sat 03:29:55 PM 44.1730 -80.1600 213° Southwest 445 512 38,000  Level FlightAware ADS-B
Sat 03:30:27 PM 44.1170 -80.2100 213° Southwest 443 510 38,000  Level FlightAware ADS-B
Sat 03:31:04 PM 44.0540 -80.2660 213° Southwest 443 510 38,000  Level FlightAware ADS-B
Sat 03:31:41 PM 43.9900 -80.3230 213° Southwest 441 507 38,000  Level FlightAware ADS-B
Sat 03:32:12 PM 43.9380 -80.3690 213° Southwest 441 507 38,000  Level FlightAware ADS-B
Sat 03:32:48 PM 43.8760 -80.4240 213° Southwest 441 507 38,000  Level FlightAware ADS-B
Sat 03:33:18 PM 43.8240 -80.4690 212° Southwest 441 507 38,000  Level FlightAware ADS-B
Sat 03:34:00 PM 43.7500 -80.5340 212° Southwest 441 507 38,000  Level FlightAware ADS-B
Sat 03:34:34 PM 43.6930 -80.5840 212° Southwest 441 507 38,000  Level FlightAware ADS-B
Sat 03:35:09 PM 43.6320 -80.6370 212° Southwest 441 507 38,000  Level FlightAware ADS-B
Sat 03:35:41 PM 43.5770 -80.6850 212° Southwest 440 506 38,000  Level FlightAware ADS-B
Sat 03:36:18 PM 43.5130 -80.7410 212° Southwest 440 506 38,000  Level FlightAware ADS-B
Sat 03:36:51 PM 43.4560 -80.7900 212° Southwest 438 504 38,000  Level FlightAware ADS-B
Sat 03:37:30 PM 43.3910 -80.8460 212° Southwest 439 505 38,000  Level FlightAware ADS-B
Sat 03:38:05 PM 43.3310 -80.8980 212° Southwest 439 505 38,000  Level FlightAware ADS-B
Sat 03:38:37 PM 43.2760 -80.9460 212° Southwest 439 505 38,000  Level FlightAware ADS-B
Sat 03:39:16 PM 43.2070 -81.0050 212° Southwest 439 505 38,000  Level FlightAware ADS-B
Sat 03:39:47 PM 43.1550 -81.0490 212° Southwest 438 504 38,000  Level FlightAware ADS-B
Sat 03:40:21 PM 43.0950 -81.1000 212° Southwest 438 504 38,000  Level FlightAware ADS-B
Sat 03:40:56 PM 43.0370 -81.1480 211° Southwest 438 504 38,000  Level FlightAware ADS-B
Sat 03:41:33 PM 42.9700 -81.1890 204° Southwest 438 504 38,000  Level FlightAware ADS-B
Sat 03:42:11 PM 42.8980 -81.2350 205° Southwest 438 504 38,000  Level FlightAware ADS-B
Sat 03:42:44 PM 42.8380 -81.2730 205° Southwest 438 504 38,000  Level FlightAware ADS-B
Sat 03:43:19 PM 42.7750 -81.3110 204° Southwest 439 505 38,000  Level FlightAware ADS-B
Sat 03:43:50 PM 42.7130 -81.3490 204° Southwest 439 505 38,000  Level FlightAware ADS-B
Sat 03:44:27 PM 42.6530 -81.3860 204° Southwest 437 503 38,000  Level FlightAware ADS-B
Sat 03:45:02 PM 42.5810 -81.4300 204° Southwest 436 502 38,000  Level FlightAware ADS-B
Sat 03:45:39 PM 42.5140 -81.4710 204° Southwest 435 501 38,000  Level FlightAware ADS-B
Sat 03:46:11 PM 42.4540 -81.5080 204° Southwest 434 499 38,000  Level FlightAware ADS-B
Sat 03:46:48 PM 42.3880 -81.5480 204° Southwest 434 499 38,000  Level FlightAware ADS-B
Sat 03:47:23 PM 42.3260 -81.5850 204° Southwest 434 499 38,000  Level FlightAware ADS-B
Sat 03:47:56 PM 42.2630 -81.6240 205° Southwest 435 501 38,000  Level FlightAware ADS-B
Sat 03:48:33 PM 42.1960 -81.6640 204° Southwest 435 501 38,000  Level FlightAware ADS-B
Sat 03:49:08 PM 42.1320 -81.7030 204° Southwest 435 501 38,000  Level FlightAware ADS-B
Sat 03:49:45 PM 42.0620 -81.7440 204° Southwest 435 501 38,000  Level FlightAware ADS-B
Sat 03:50:17 PM 42.0020 -81.7800 204° Southwest 435 501 38,000  Level FlightAware ADS-B
Sat 03:50:54 PM 41.9360 -81.8200 204° Southwest 434 499 38,000  Level FlightAware ADS-B
Sat 03:51:29 PM 41.8740 -81.8570 204° Southwest 435 501 38,000  Level FlightAware ADS-B
Sat 03:52:02 PM 41.8130 -81.8930 204° Southwest 435 501 38,000  Level FlightAware ADS-B
Sat 03:52:38 PM 41.7430 -81.9350 204° Southwest 435 501 38,000  Level FlightAware ADS-B
Sat 03:53:15 PM 41.6760 -81.9750 204° Southwest 435 501 38,000  Level FlightAware ADS-B
Sat 03:53:50 PM 41.6150 -82.0110 204° Southwest 435 501 38,000  Level FlightAware ADS-B
Sat 03:54:22 PM 41.5540 -82.0470 204° Southwest 436 502 38,000  Level FlightAware ADS-B
Sat 03:54:58 PM 41.4870 -82.0860 204° Southwest 437 503 38,000  Level FlightAware ADS-B
Sat 03:55:34 PM 41.4210 -82.1250 204° Southwest 437 503 38,000  Level FlightAware ADS-B
Sat 03:56:08 PM 41.3570 -82.1600 202° Southwest 437 503 38,000  Level FlightAware ADS-B
Sat 03:56:44 PM 41.2860 -82.1860 195° South 436 502 38,000  Level FlightAware ADS-B
Sat 03:57:18 PM 41.2220 -82.2100 196° South 435 501 38,000  Level FlightAware ADS-B
Sat 03:57:53 PM 41.1540 -82.2350 195° South 436 502 38,000  Level FlightAware ADS-B
Sat 03:58:29 PM 41.0820 -82.2610 195° South 437 503 38,000  Level FlightAware ADS-B
Sat 03:59:05 PM 41.0140 -82.2850 195° South 438 504 38,000  Level FlightAware ADS-B
Sat 03:59:41 PM 40.9440 -82.3100 195° South 439 505 38,000  Level FlightAware ADS-B
Sat 04:00:13 PM 40.8770 -82.3340 195° South 439 505 38,000  Level FlightAware ADS-B
Sat 04:00:49 PM 40.8090 -82.3580 195° South 439 505 38,000  Level FlightAware ADS-B
Sat 04:01:22 PM 40.7450 -82.3810 195° South 440 506 38,000  Level FlightAware ADS-B
Sat 04:01:59 PM 40.6740 -82.4060 195° South 440 506 38,000  Level FlightAware ADS-B
Sat 04:02:34 PM 40.6030 -82.4310 195° South 443 510 38,000  Level FlightAware ADS-B
Sat 04:03:10 PM 40.5330 -82.4550 195° South 445 512 38,000  Level FlightAware ADS-B
Sat 04:03:44 PM 40.4610 -82.4800 195° South 447 514 38,000  Level FlightAware ADS-B
Sat 04:04:22 PM 40.3890 -82.5060 195° South 449 517 38,000  Level FlightAware ADS-B
Sat 04:04:54 PM 40.3250 -82.5280 195° South 451 519 38,000  Level FlightAware ADS-B
Sat 04:05:32 PM 40.2460 -82.5550 195° South 454 522 38,000  Level FlightAware ADS-B
Sat 04:06:06 PM 40.1770 -82.5780 194° South 457 526 38,000  Level FlightAware ADS-B
Sat 04:06:42 PM 40.1020 -82.5910 188° South 461 531 38,000  Level FlightAware ADS-B
Sat 04:07:14 PM 40.0340 -82.5950 183° South 461 531 38,000  Level FlightAware ADS-B
Sat 04:07:52 PM 39.9530 -82.6020 184° South 461 531 38,000  Level FlightAware ADS-B
Sat 04:08:24 PM 39.8840 -82.6070 183° South 461 531 38,000  Level FlightAware ADS-B
Sat 04:09:02 PM 39.8020 -82.6120 183° South 462 532 38,000  Level FlightAware ADS-B
Sat 04:09:35 PM 39.7330 -82.6170 183° South 464 534 38,000  Level FlightAware ADS-B
Sat 04:10:12 PM 39.6510 -82.6220 183° South 468 539 38,000  Level FlightAware ADS-B
Sat 04:10:48 PM 39.5720 -82.6280 183° South 469 540 38,000  Level FlightAware ADS-B
Sat 04:11:20 PM 39.5010 -82.6320 182° South 470 541 38,000  Level FlightAware ADS-B
Sat 04:11:58 PM 39.4260 -82.6380 184° South 470 541 38,000  Level FlightAware ADS-B
Sat 04:12:29 PM 39.3540 -82.6420 182° South 470 541 38,000  Level FlightAware ADS-B
Sat 04:13:05 PM 39.2760 -82.6480 183° South 470 541 38,000  Level FlightAware ADS-B
Sat 04:13:41 PM 39.1960 -82.6530 183° South 469 540 38,000  Level FlightAware ADS-B
Sat 04:14:17 PM 39.1200 -82.6580 183° South 470 541 38,000  Level FlightAware ADS-B
Sat 04:14:49 PM 39.0540 -82.6620 183° South 471 542 38,000  Level FlightAware ADS-B
Sat 04:15:25 PM 38.9720 -82.6680 183° South 473 544 38,000  Level FlightAware ADS-B
Sat 04:16:01 PM 38.8930 -82.6730 183° South 473 544 38,000  Level FlightAware ADS-B
Sat 04:16:33 PM 38.8220 -82.6770 183° South 473 544 38,000  Level FlightAware ADS-B
Sat 04:17:11 PM 38.7390 -82.6830 183° South 473 544 38,000  Level FlightAware ADS-B
Sat 04:17:44 PM 38.6700 -82.6870 183° South 474 545 38,000  Level FlightAware ADS-B
Sat 04:18:29 PM 38.5710 -82.6940 183° South 475 547 38,000  Level FlightAware ADS-B
Sat 04:19:02 PM 38.4950 -82.6990 183° South 476 548 38,000  Level FlightAware ADS-B
Sat 04:19:38 PM 38.4150 -82.7040 183° South 478 550 38,000  Level FlightAware ADS-B
Sat 04:20:15 PM 38.3320 -82.7090 183° South 479 551 38,000  Level FlightAware ADS-B
Sat 04:20:47 PM 38.2610 -82.7140 183° South 479 551 38,000  Level FlightAware ADS-B
Sat 04:21:23 PM 38.1830 -82.7190 183° South 478 550 38,000  Level FlightAware ADS-B
Sat 04:21:59 PM 38.1040 -82.7240 183° South 478 550 38,000  Level FlightAware ADS-B
Sat 04:22:35 PM 38.0210 -82.7290 183° South 478 550 38,000  Level FlightAware ADS-B
Sat 04:23:05 PM 37.9558 -82.7337 183° South 480 552 38,000  Level FlightAware ADS-B
Sat 04:23:41 PM 37.8766 -82.7388 183° South 482 555 38,000  Level FlightAware ADS-B
Sat 04:24:19 PM 37.7930 -82.7440 183° South 482 555 38,000  Level FlightAware ADS-B
Sat 04:24:46 PM 37.7317 -82.7529 187° South 483 556 38,000  Level FlightAware ADS-B
Sat 04:24:50 PM 37.7229 -82.7550 191° South 479 551 38,000  Level FlightAware ADS-B
Sat 04:25:02 PM 37.6971 -82.7625 193° South 478 550 38,000  Level FlightAware ADS-B
Sat 04:25:37 PM 37.6230 -82.7926 198° South 475 547 38,000  Level FlightAware ADS-B
Sat 04:26:39 PM 37.5020 -82.8670 206° Southwest 471 542 38,000  Level FlightAware ADS-B
Sat 04:26:50 PM 37.4806 -82.8813 208° Southwest 471 542 38,000  Level FlightAware ADS-B
Sat 04:27:21 PM 37.4204 -82.9211 208° Southwest 473 544 38,000  Level FlightAware ADS-B
Sat 04:27:52 PM 37.3613 -82.9600 208° Southwest 473 544 38,000  Level FlightAware ADS-B
Sat 04:28:22 PM 37.3026 -82.9984 207° Southwest 473 544 38,000  Level FlightAware ADS-B
Sat 04:28:53 PM 37.2426 -83.0377 208° Southwest 473 544 38,000  Level FlightAware ADS-B
Sat 04:29:29 PM 37.1717 -83.0840 207° Southwest 474 545 38,000  Level FlightAware ADS-B
Sat 04:30:03 PM 37.1052 -83.1274 207° Southwest 476 548 38,000  Level FlightAware ADS-B
Sat 04:30:34 PM 37.0465 -83.1655 207° Southwest 477 549 38,000  Level FlightAware ADS-B
Sat 04:31:04 PM 36.9873 -83.2040 207° Southwest 476 548 38,000  Level FlightAware ADS-B
Sat 04:31:34 PM 36.9284 -83.2420 207° Southwest 475 547 38,000  Level FlightAware ADS-B
Sat 04:32:05 PM 36.8676 -83.2813 207° Southwest 475 547 38,000  Level FlightAware ADS-B
Sat 04:32:35 PM 36.8093 -83.3190 207° Southwest 475 547 38,000  Level FlightAware ADS-B
Sat 04:33:19 PM 36.7236 -83.3742 207° Southwest 475 547 38,000  Level FlightAware ADS-B
Sat 04:33:49 PM 36.6641 -83.4125 207° Southwest 475 547 38,000  Level FlightAware ADS-B
Sat 04:34:20 PM 36.6047 -83.4506 207° Southwest 474 545 38,000  Level FlightAware ADS-B
Sat 04:34:51 PM 36.5448 -83.4890 207° Southwest 474 545 38,000  Level FlightAware ADS-B
Sat 04:35:21 PM 36.4859 -83.5266 207° Southwest 473 544 38,000  Level FlightAware ADS-B
Sat 04:35:52 PM 36.4258 -83.5650 207° Southwest 473 544 38,000  Level FlightAware ADS-B
Sat 04:36:22 PM 36.3673 -83.6024 207° Southwest 474 545 38,000  Level FlightAware ADS-B
Sat 04:36:53 PM 36.3064 -83.6411 207° Southwest 475 547 38,000  Level FlightAware ADS-B
Sat 04:37:29 PM 36.2368 -83.6853 207° Southwest 475 547 38,000  Level FlightAware ADS-B
Sat 04:38:01 PM 36.1736 -83.7253 207° Southwest 473 544 38,000  Level FlightAware ADS-B
Sat 04:38:32 PM 36.1131 -83.7637 207° Southwest 471 542 38,000  Level FlightAware ADS-B
Sat 04:39:03 PM 36.0545 -83.8007 207° Southwest 469 540 38,000  Level FlightAware ADS-B
Sat 04:39:36 PM 35.9911 -83.8406 207° Southwest 467 537 38,000  Level FlightAware ADS-B
Sat 04:40:01 PM 35.9410 -83.8695 205° Southwest 469 540 38,000  Level FlightAware ADS-B
Sat 04:40:33 PM 35.8749 -83.8969 199° South 471 542 38,000  Level FlightAware ADS-B
Sat 04:40:49 PM 35.8420 -83.9073 194° South 474 545 38,000  Level FlightAware ADS-B
Sat 04:41:19 PM 35.7759 -83.9239 192° South 474 545 38,000  Level FlightAware ADS-B
Sat 04:41:51 PM 35.7078 -83.9420 192° South 474 545 38,000  Level FlightAware ADS-B
Sat 04:42:21 PM 35.6427 -83.9585 192° South 474 545 38,000  Level FlightAware ADS-B
Sat 04:43:04 PM 35.5498 -83.9811 191° South 475 547 38,000  Level FlightAware ADS-B
Sat 04:43:36 PM 35.4823 -83.9975 191° South 475 547 38,000  Level FlightAware ADS-B
Sat 04:44:06 PM 35.4178 -84.0130 191° South 475 547 38,000  Level FlightAware ADS-B
Sat 04:44:36 PM 35.3514 -84.0289 191° South 476 548 38,000  Level FlightAware ADS-B
Sat 04:45:11 PM 35.2767 -84.0470 191° South 477 549 38,000  Level FlightAware ADS-B
Sat 04:45:42 PM 35.2096 -84.0630 191° South 479 551 38,000  Level FlightAware ADS-B
Sat 04:46:12 PM 35.1444 -84.0787 191° South 481 554 38,000  Level FlightAware ADS-B
Sat 04:46:43 PM 35.0754 -84.0952 191° South 482 555 38,000  Level FlightAware ADS-B
Sat 04:47:13 PM 35.0094 -84.1109 191° South 484 557 38,000  Level FlightAware ADS-B
Sat 04:47:43 PM 34.9432 -84.1267 191° South 485 558 38,000  Level FlightAware ADS-B
Sat 04:48:14 PM 34.8764 -84.1427 191° South 485 558 38,000  Level FlightAware ADS-B
Sat 04:48:44 PM 34.8093 -84.1588 191° South 484 557 38,000  Level FlightAware ADS-B
Sat 04:49:15 PM 34.7424 -84.1745 191° South 474 545 38,000  Level FlightAware ADS-B
Sat 04:49:45 PM 34.6772 -84.1900 191° South 476 548 38,000  Level FlightAware ADS-B
Sat 04:50:46 PM 34.5474 -84.2206 191° South 474 545 38,000  Level FlightAware ADS-B
Sat 04:51:16 PM 34.4819 -84.2361 191° South 479 551 38,000  Level FlightAware ADS-B
Sat 04:51:47 PM 34.4141 -84.2521 191° South 484 557 38,000  Level FlightAware ADS-B
Sat 04:52:17 PM 34.3479 -84.2677 191° South 484 557 38,000  Level FlightAware ADS-B
Sat 04:52:47 PM 34.2813 -84.2832 191° South 484 557 38,000  Level FlightAware ADS-B
Sat 04:53:23 PM 34.2021 -84.3019 191° South 483 556 38,000  Level FlightAware ADS-B
Sat 04:54:16 PM 34.0870 -84.3290 191° South 483 556 38,000  Level FlightAware ADS-B
Sat 04:54:48 PM 34.0150 -84.3460 191° South 483 556 38,000  Level FlightAware ADS-B
Sat 04:55:36 PM 33.9093 -84.3702 191° South 483 556 38,000  Level FlightAware ADS-B
Sat 04:56:07 PM 33.8432 -84.3855 191° South 484 557 38,000  Level FlightAware ADS-B
Sat 04:56:38 PM 33.7743 -84.4015 191° South 484 557 38,000  Level FlightAware ADS-B
Sat 04:57:10 PM 33.7032 -84.4180 191° South 486 559 38,000  Level FlightAware ADS-B
Sat 04:57:20 PM 33.6800 -84.4231 190° South 489 563 38,000  Level FlightAware ADS-B
Sat 04:57:44 PM 33.6264 -84.4304 186° South 495 570 38,000  Level FlightAware ADS-B
Sat 04:58:12 PM 33.5627 -84.4327 182° South 500 575 38,000  Level FlightAware ADS-B
Sat 04:58:49 PM 33.4761 -84.4311 179° South 501 577 38,000  Level FlightAware ADS-B
Sat 04:59:20 PM 33.4049 -84.4302 179° South 501 577 38,000  Level FlightAware ADS-B
Sat 04:59:52 PM 33.3309 -84.4289 179° South 499 574 38,000  Level FlightAware ADS-B
Sat 05:00:48 PM 33.2040 -84.4260 179° South 501 577 38,000 -65 Level FlightAware ADS-B
Sat 05:01:25 PM 33.1170 -84.4250 179° South 501 577 37,900 -257 Descending FlightAware ADS-B
Sat 05:01:58 PM 33.0410 -84.4230 179° South 497 572 37,700 -537 Descending FlightAware ADS-B
Sat 05:02:32 PM 32.9600 -84.4210 179° South 499 574 37,300 -583 Descending FlightAware ADS-B
Sat 05:03:10 PM 32.8760 -84.4200 179° South 498 573 37,000 -257 Descending FlightAware ADS-B
Sat 05:03:42 PM 32.8000 -84.4180 179° South 495 570 37,000  Level FlightAware ADS-B
Sat 05:04:24 PM 32.7260 -84.4170 179° South 496 571 37,000  Level FlightAware ADS-B
Sat 05:05:00 PM 32.6450 -84.4150 179° South 498 573 37,000  Level FlightAware ADS-B
Sat 05:05:33 PM 32.5810 -84.4140 179° South 499 574 37,000  Level FlightAware ADS-B
Sat 05:06:10 PM 32.5080 -84.4120 179° South 499 574 37,000  Level FlightAware ADS-B
Sat 05:06:48 PM 32.4340 -84.4110 179° South 499 574 37,000  Level FlightAware ADS-B
Sat 05:07:24 PM 32.3630 -84.4090 179° South 499 574 37,000  Level FlightAware ADS-B
Sat 05:08:00 PM 32.2930 -84.4080 179° South 499 574 37,000  Level FlightAware ADS-B
Sat 05:08:39 PM 32.1170 -84.4040 179° South 504 580 37,000  Level FlightAware ADS-B
Sat 05:09:16 PM 32.0430 -84.4010 178° South 504 580 37,000  Level FlightAware ADS-B
Sat 05:10:00 PM 31.9400 -84.3990 179° South 507 583 37,000  Level FlightAware ADS-B
Sat 05:10:38 PM 31.8390 -84.3990 180° South 507 583 37,000  Level FlightAware ADS-B
Sat 05:11:00 PM 31.7860 -84.3980 179° South 507 583 37,000  Level FlightAware ADS-B
Sat 05:11:44 PM 31.6830 -84.3960 179° South 507 583 37,000  Level FlightAware ADS-B
Sat 05:12:25 PM 31.5840 -84.3940 179° South 508 585 37,000  Level FlightAware ADS-B
Sat 05:12:57 PM 31.5080 -84.3920 179° South 510 587 37,000  Level FlightAware ADS-B
Sat 05:13:36 PM 31.4160 -84.3910 179° South 511 588 37,000  Level FlightAware ADS-B
Sat 05:14:07 PM 31.3430 -84.3890 179° South 512 589 37,000  Level FlightAware ADS-B
Sat 05:14:43 PM 31.2580 -84.3880 179° South 513 590 37,000  Level FlightAware ADS-B
Sat 05:15:17 PM 31.1750 -84.3860 179° South 514 592 37,000  Level FlightAware ADS-B
Sat 05:15:23 PM 31.1606 -84.3857 179° South 514 592 37,000  Level FlightAware ADS-B (KONZ)
Sat 05:15:58 PM 31.0891 -84.3843 179° South 514 592 37,000  Level FlightAware ADS-B (KONZ)
Sat 05:16:29 PM 31.0040 -84.3830 179° South 514 592 37,000  Level FlightAware ADS-B
Sat 05:16:37 PM 30.9861 -84.3814 176° South 517 595 37,000  Level FlightAware ADS-B (KONZ)
Sat 05:17:04 PM 30.9235 -84.3633 166° South 529 609 37,000  Level FlightAware ADS-B (KONZ)
Sat 05:17:53 PM 30.8124 -84.3078 157° South 531 611 37,000  Level FlightAware ADS-B (KONZ)
Sat 05:18:28 PM 30.7327 -84.2685 157° South 533 613 37,000  Level FlightAware ADS-B (KONZ)
Sat 05:19:07 PM 30.6435 -84.2245 157° South 534 615 37,000  Level FlightAware ADS-B (KONZ)
Sat 05:19:37 PM 30.5763 -84.1915 157° South 536 617 37,000  Level FlightAware ADS-B (KONZ)
Sat 05:20:15 PM 30.4883 -84.1491 157° South 538 619 37,000  Level FlightAware ADS-B (KONZ)
Sat 05:20:47 PM 30.4318 -84.1219 158° South 538 619 37,000  Level FlightAware ADS-B (KONZ)
Sat 05:21:18 PM 30.3435 -84.0794 157° South 538 619 37,000  Level FlightAware ADS-B (KONZ)
Sat 05:22:07 PM 30.2307 -84.0253 157° South 538 619 37,000  Level FlightAware ADS-B (KONZ)
Sat 05:22:38 PM 30.1600 -83.9914 157° South 538 619 37,000  Level FlightAware ADS-B (KONZ)
Sat 05:23:17 PM 30.0692 -83.9479 158° South 538 619 37,000  Level FlightAware ADS-B (KONZ)
Sat 05:23:58 PM 29.9810 -83.9060 158° South 537 618 37,000  Level FlightAware ADS-B
Sat 05:24:28 PM 29.9066 -83.8703 157° South 536 617 37,000  Level FlightAware ADS-B (KONZ)
Sat 05:25:06 PM 29.8224 -83.8302 158° South 535 616 37,000  Level FlightAware ADS-B (KONZ)
Sat 05:25:43 PM 29.7370 -83.7900 158° South 535 616 37,000  Level FlightAware ADS-B
Sat 05:26:17 PM 29.6560 -83.7510 157° South 535 616 37,000  Level FlightAware ADS-B
Sat 05:26:53 PM 29.5760 -83.7140 158° South 536 617 37,000  Level FlightAware ADS-B
Sat 05:27:29 PM 29.4910 -83.6730 157° South 536 617 37,000  Level FlightAware ADS-B
Sat 05:28:02 PM 29.4150 -83.6380 158° South 536 617 37,000  Level FlightAware ADS-B
Sat 05:28:38 PM 29.3330 -83.5990 157° South 537 618 37,000  Level FlightAware ADS-B
Sat 05:29:09 PM 29.2620 -83.5650 157° South 537 618 37,000  Level FlightAware ADS-B
Sat 05:29:53 PM 29.1620 -83.5180 158° South 538 619 37,000  Level FlightAware ADS-B
Sat 05:30:26 PM 29.0890 -83.4840 158° South 537 618 37,000  Level FlightAware ADS-B
Sat 05:31:03 PM 29.0000 -83.4430 158° South 537 618 37,000  Level FlightAware ADS-B
Sat 05:31:39 PM 28.9190 -83.4050 158° South 538 619 37,000  Level FlightAware ADS-B
Sat 05:32:16 PM 28.8300 -83.3630 158° South 538 619 37,000  Level FlightAware ADS-B
Sat 05:32:49 PM 28.7540 -83.3280 158° South 539 620 37,000  Level FlightAware ADS-B
Sat 05:33:25 PM 28.6710 -83.2900 158° South 540 621 37,000  Level FlightAware ADS-B
Sat 05:33:56 PM 28.6000 -83.2570 158° South 539 620 37,000  Level FlightAware ADS-B
Sat 05:34:33 PM 28.5160 -83.2180 158° South 539 620 37,000  Level FlightAware ADS-B
Sat 05:35:09 PM 28.4310 -83.1780 158° South 537 618 37,000  Level FlightAware ADS-B
Sat 05:35:46 PM 28.3460 -83.1390 158° South 537 618 37,000  Level FlightAware ADS-B
Sat 05:36:17 PM 28.2760 -83.1070 158° South 537 618 37,000  Level FlightAware ADS-B
Sat 05:36:54 PM 28.1890 -83.0670 158° South 538 619 37,000  Level FlightAware ADS-B
Sat 05:37:31 PM 28.1040 -83.0290 158° South 537 618 37,000  Level FlightAware ADS-B
Sat 05:37:54 PM 28.0460 -83.0170 170° South 533 613 37,000  Level FlightAware ADS-B
Sat 05:38:28 PM 27.9630 -83.0080 175° South 532 612 37,000  Level FlightAware ADS-B
Sat 05:39:06 PM 27.8700 -82.9970 174° South 531 611 37,000  Level FlightAware ADS-B
Sat 05:39:42 PM 27.7860 -82.9860 173° South 519 597 37,000  Level FlightAware ADS-B
Sat 05:40:17 PM 27.7030 -82.9750 173° South 514 592 37,000  Level FlightAware ADS-B
Sat 05:40:52 PM 27.6180 -82.9650 174° South 512 589 37,000  Level FlightAware ADS-B
Sat 05:41:29 PM 27.5290 -82.9530 173° South 511 588 37,000  Level FlightAware ADS-B
Sat 05:41:58 PM 27.4620 -82.9450 174° South 510 587 37,000  Level FlightAware ADS-B
Sat 05:42:36 PM 27.3730 -82.9330 173° South 508 585 37,000  Level FlightAware ADS-B
Sat 05:43:07 PM 27.3030 -82.9250 174° South 507 583 37,000  Level FlightAware ADS-B
Sat 05:43:46 PM 27.2190 -82.9130 173° South 507 583 37,000  Level FlightAware ADS-B
Sat 05:44:19 PM 27.1400 -82.9040 174° South 500 575 37,000  Level FlightAware ADS-B
Sat 05:45:05 PM 27.0300 -82.8900 174° South 500 575 37,000  Level FlightAware ADS-B
Sat 05:45:44 PM 26.9380 -82.8790 174° South 500 575 37,000  Level FlightAware ADS-B
Sat 05:46:19 PM 26.8580 -82.8690 174° South 499 574 37,000  Level FlightAware ADS-B
Sat 05:46:54 PM 26.7750 -82.8580 173° South 499 574 37,000  Level FlightAware ADS-B
Sat 05:47:29 PM 26.6930 -82.8480 174° South 499 574 37,000  Level FlightAware ADS-B
Sat 05:48:04 PM 26.6090 -82.8370 173° South 499 574 37,000  Level FlightAware ADS-B
Sat 05:48:39 PM 26.5350 -82.8280 174° South 499 574 37,000  Level FlightAware ADS-B
Sat 05:49:21 PM 26.4400 -82.8160 174° South 499 574 37,000  Level FlightAware ADS-B
Sat 05:50:00 PM 26.3640 -82.8060 173° South 499 574 37,000  Level FlightAware ADS-B
Sat 05:50:31 PM 26.2680 -82.7950 174° South 498 573 37,000  Level FlightAware ADS-B
Sat 05:51:17 PM 26.1710 -82.7820 173° South 498 573 37,000  Level FlightAware ADS-B
Sat 05:52:11 PM 26.0370 -82.7660 174° South 498 573 37,000  Level FlightAware ADS-B
Sat 05:52:47 PM 25.9640 -82.7570 174° South 498 573 37,000  Level FlightAware ADS-B
Sat 05:53:21 PM 25.8980 -82.7480 173° South 498 573 37,000  Level FlightAware ADS-B
Sat 05:53:58 PM 25.8260 -82.7380 173° South 498 573 37,000  Level FlightAware ADS-B
Sat 05:54:32 PM 25.7080 -82.7260 175° South 498 573 37,000  Level FlightAware ADS-B
Sat 05:55:05 PM 25.6330 -82.7170 174° South 505 581 37,000  Level FlightAware ADS-B
Sat 05:55:49 PM 25.5300 -82.7040 174° South 504 580 37,000  Level FlightAware ADS-B
Sat 05:56:26 PM 25.4390 -82.6930 174° South 503 579 37,000  Level FlightAware ADS-B
Sat 05:57:11 PM 25.3580 -82.6820 173° South 503 579 37,000  Level FlightAware ADS-B
Sat 05:58:05 PM 25.2250 -82.6660 174° South 501 577 37,000 -253 Level FlightAware ADS-B
Sat 05:58:46 PM 25.1150 -82.6530 174° South 504 580 36,600 -468 Descending FlightAware ADS-B
Sat 05:59:22 PM 25.0430 -82.6440 174° South 504 580 36,400 -1,371 Descending FlightAware ADS-B
Sat 05:59:56 PM 24.9630 -82.6350 174° South 501 577 35,000 -2,143 Descending FlightAware ADS-B
Sat 06:00:46 PM 24.8420 -82.6200 174° South 484 557 33,400 -1,835 Descending FlightAware ADS-B
Sat 06:01:21 PM 24.7620 -82.6100 174° South 484 557 32,400 -1,680 Descending FlightAware ADS-B
Sat 06:02:01 PM 24.6760 -82.6000 174° South 469 540 31,300 -1,690 Descending FlightAware ADS-B
Sat 06:02:32 PM 24.6080 -82.5920 174° South 471 542 30,400 -1,645 Descending FlightAware ADS-B
Sat 06:03:03 PM 24.5390 -82.5830 173° South 455 524 29,600 -676 Descending FlightAware ADS-B
Sat 06:03:43 PM 24.4680 -82.5740 173° South 455 524 29,600 -1,171 Level FlightAware ADS-B
Sat 06:04:25 PM 24.3750 -82.5630 174° South 455 524 28,000 -1,215 Descending FlightAware ADS-B
Sat 06:05:02 PM 24.3090 -82.5540 173° South 455 524 28,000  Level FlightAware ADS-B
Sat 06:05:38 PM 24.2450 -82.5460 173° South 455 524 28,000  Level FlightAware ADS-B
Sat 06:06:14 PM 24.1810 -82.5370 173° South 455 524 28,000  Level FlightAware ADS-B
Sat 06:06:51 PM 24.1160 -82.5280 173° South 455 524 28,000  Level FlightAware ADS-B
Sat 06:07:25 PM 24.0550 -82.5200 173° South 455 524 28,000  Level FlightAware ADS-B
Sat 06:15:00 PM 23.1003 -82.4101 170° South  Level FlightAware Approximate
Sat 06:16:00 PM 22.9891 -82.4091 180° South  Level Estimated
Sat 06:17:00 PM 22.9891 -82.4091 180° South  Level Estimated
Sat 06:18:00 PM 22.9891 -82.4091 180° South  Level Estimated
Sat 06:19:00 PM 22.9891 -82.4091 180° South  Level Estimated
Sat 06:20:00 PM 22.9891 -82.4091 180° South  Level Estimated
Sat 06:21:00 PM 22.9891 -82.4091 180° South  Level Estimated
Sat 06:22:00 PM 22.9891 -82.4091 180° South  Level Estimated
Sat 06:23:00 PM 22.9891 -82.4091 180° South  Level Estimated
Sat 06:24:00 PM 22.9891 -82.4091 180° South  Level Estimated
Sat 06:25:00 PM 22.9891 -82.4091 180° South  Level Estimated
Sat 06:26:00 PM 22.9891 -82.4091 180° South  Level Estimated
Sat 06:27:00 PM 22.9891 -82.4091 180° South  Level Estimated
Sat 06:28:00 PM 22.9891 -82.4091 180° South  Level Estimated
Sat 06:29:00 PM 22.9891 -82.4091 180° South  Level Estimated
Sat 06:30:00 PM 22.9891 -82.4091 180° South  Level Estimated
Sat 06:31:00 PM 22.9891 -82.4091 180° South  Level Estimated
Sat 06:32:00 PM 22.9891 -82.4091 180° South  Level Estimated
Sat 06:33:00 PM 22.9891 -82.4091 180° South  Level Estimated
Sat 06:34:00 PM 22.9891 -82.4091 180° South  Level Estimated
Sat 06:35:00 PM 22.9891 -82.4091 180° South  Level Estimated
Sat 06:36:00 PM 22.9891 -82.4091 180° South  Level Estimated
Sat 06:37:00 PM 22.9891 -82.4091 180° South  Level Estimated
Sat 06:38:00 PM 22.9891 -82.4091 180° South  Level Estimated

Login

Don't have an account? Register now (free) for customized features, flight alerts, and more!